<?xml version="1.0" encoding="UTF-8" standalone="no" ?>
<gpx xmlns="http://www.topografix.com/GPX/1/1" xmlns:xsi="http://www.w3.org/2001/XMLSchema-instance" xsi:schemaLocation="http://www.topografix.com/GPX/1/1 http://www.topografix.com/GPX/1/1/gpx.xsd" version="1.1" creator="VisuGPX - https://www.visugpx.com">
  <metadata>
    <name>T-14-09-13-Grignan-a-matin</name>
    <desc><![CDATA[VTT à Grignan]]></desc>
  </metadata>
  <trk>
    <name><![CDATA[T-14-09-13-Grignan-matin]]></name>
    <trkseg>
      <trkpt lat="44.41028" lon="4.89115">
        <ele>174.95</ele>
        <time>2014-09-13T07:22:36Z</time>
      </trkpt>
      <trkpt lat="44.41028" lon="4.89115">
        <ele>174.95</ele>
        <time>2014-09-13T07:22:37Z</time>
      </trkpt>
      <trkpt lat="44.41027" lon="4.89119">
        <ele>174.95</ele>
        <time>2014-09-13T07:23:28Z</time>
      </trkpt>
      <trkpt lat="44.41044" lon="4.8911">
        <ele>174.95</ele>
        <time>2014-09-13T07:25:11Z</time>
      </trkpt>
      <trkpt lat="44.41047" lon="4.89109">
        <ele>174.95</ele>
        <time>2014-09-13T07:25:12Z</time>
      </trkpt>
      <trkpt lat="44.41062" lon="4.89106">
        <ele>174.95</ele>
        <time>2014-09-13T07:25:18Z</time>
      </trkpt>
      <trkpt lat="44.41084" lon="4.89104">
        <ele>174.95</ele>
        <time>2014-09-13T07:25:30Z</time>
      </trkpt>
      <trkpt lat="44.41086" lon="4.89105">
        <ele>174.95</ele>
        <time>2014-09-13T07:25:38Z</time>
      </trkpt>
      <trkpt lat="44.41105" lon="4.891">
        <ele>174.95</ele>
        <time>2014-09-13T07:25:47Z</time>
      </trkpt>
      <trkpt lat="44.41127" lon="4.89115">
        <ele>174.95</ele>
        <time>2014-09-13T07:25:58Z</time>
      </trkpt>
      <trkpt lat="44.4114" lon="4.89121">
        <ele>174.95</ele>
        <time>2014-09-13T07:26:03Z</time>
      </trkpt>
      <trkpt lat="44.41146" lon="4.89125">
        <ele>174.95</ele>
        <time>2014-09-13T07:26:06Z</time>
      </trkpt>
      <trkpt lat="44.41159" lon="4.89132">
        <ele>174.95</ele>
        <time>2014-09-13T07:26:19Z</time>
      </trkpt>
      <trkpt lat="44.41166" lon="4.89139">
        <ele>176.03</ele>
        <time>2014-09-13T07:36:35Z</time>
      </trkpt>
      <trkpt lat="44.41166" lon="4.89139">
        <ele>176.07</ele>
        <time>2014-09-13T07:36:36Z</time>
      </trkpt>
      <trkpt lat="44.41165" lon="4.89144">
        <ele>176.49</ele>
        <time>2014-09-13T07:36:57Z</time>
      </trkpt>
      <trkpt lat="44.41157" lon="4.89199">
        <ele>176.84</ele>
        <time>2014-09-13T07:37:13Z</time>
      </trkpt>
      <trkpt lat="44.41162" lon="4.89245">
        <ele>177.48</ele>
        <time>2014-09-13T07:37:24Z</time>
      </trkpt>
      <trkpt lat="44.41163" lon="4.89254">
        <ele>177.52</ele>
        <time>2014-09-13T07:37:26Z</time>
      </trkpt>
      <trkpt lat="44.41167" lon="4.89303">
        <ele>178.28</ele>
        <time>2014-09-13T07:37:38Z</time>
      </trkpt>
      <trkpt lat="44.41168" lon="4.8938">
        <ele>178.21</ele>
        <time>2014-09-13T07:37:52Z</time>
      </trkpt>
      <trkpt lat="44.4117" lon="4.89404">
        <ele>177.69</ele>
        <time>2014-09-13T07:37:56Z</time>
      </trkpt>
      <trkpt lat="44.41171" lon="4.8941">
        <ele>177.51</ele>
        <time>2014-09-13T07:37:57Z</time>
      </trkpt>
      <trkpt lat="44.41172" lon="4.89416">
        <ele>177.39</ele>
        <time>2014-09-13T07:37:58Z</time>
      </trkpt>
      <trkpt lat="44.41172" lon="4.89422">
        <ele>177.33</ele>
        <time>2014-09-13T07:37:59Z</time>
      </trkpt>
      <trkpt lat="44.41174" lon="4.89434">
        <ele>177.31</ele>
        <time>2014-09-13T07:38:01Z</time>
      </trkpt>
      <trkpt lat="44.41175" lon="4.89439">
        <ele>177.42</ele>
        <time>2014-09-13T07:38:02Z</time>
      </trkpt>
      <trkpt lat="44.41177" lon="4.89444">
        <ele>177.57</ele>
        <time>2014-09-13T07:38:03Z</time>
      </trkpt>
      <trkpt lat="44.41178" lon="4.89449">
        <ele>177.71</ele>
        <time>2014-09-13T07:38:04Z</time>
      </trkpt>
      <trkpt lat="44.4118" lon="4.89524">
        <ele>178.74</ele>
        <time>2014-09-13T07:38:18Z</time>
      </trkpt>
      <trkpt lat="44.41178" lon="4.8953">
        <ele>178.68</ele>
        <time>2014-09-13T07:38:19Z</time>
      </trkpt>
      <trkpt lat="44.41177" lon="4.89535">
        <ele>178.65</ele>
        <time>2014-09-13T07:38:20Z</time>
      </trkpt>
      <trkpt lat="44.41167" lon="4.89581">
        <ele>178.58</ele>
        <time>2014-09-13T07:38:28Z</time>
      </trkpt>
      <trkpt lat="44.41167" lon="4.89586">
        <ele>178.63</ele>
        <time>2014-09-13T07:38:29Z</time>
      </trkpt>
      <trkpt lat="44.41166" lon="4.89592">
        <ele>178.76</ele>
        <time>2014-09-13T07:38:30Z</time>
      </trkpt>
      <trkpt lat="44.41165" lon="4.89597">
        <ele>178.83</ele>
        <time>2014-09-13T07:38:31Z</time>
      </trkpt>
      <trkpt lat="44.41164" lon="4.89603">
        <ele>178.86</ele>
        <time>2014-09-13T07:38:32Z</time>
      </trkpt>
      <trkpt lat="44.41156" lon="4.8968">
        <ele>178.58</ele>
        <time>2014-09-13T07:38:47Z</time>
      </trkpt>
      <trkpt lat="44.41149" lon="4.89718">
        <ele>178.52</ele>
        <time>2014-09-13T07:38:55Z</time>
      </trkpt>
      <trkpt lat="44.41145" lon="4.8972">
        <ele>178.42</ele>
        <time>2014-09-13T07:38:56Z</time>
      </trkpt>
      <trkpt lat="44.41141" lon="4.89722">
        <ele>178.35</ele>
        <time>2014-09-13T07:38:57Z</time>
      </trkpt>
      <trkpt lat="44.41137" lon="4.89724">
        <ele>177.85</ele>
        <time>2014-09-13T07:38:58Z</time>
      </trkpt>
      <trkpt lat="44.41127" lon="4.89726">
        <ele>177.54</ele>
        <time>2014-09-13T07:39:00Z</time>
      </trkpt>
      <trkpt lat="44.41121" lon="4.89727">
        <ele>177.26</ele>
        <time>2014-09-13T07:39:01Z</time>
      </trkpt>
      <trkpt lat="44.41104" lon="4.89734">
        <ele>175.48</ele>
        <time>2014-09-13T07:39:06Z</time>
      </trkpt>
      <trkpt lat="44.41102" lon="4.89739">
        <ele>175.11</ele>
        <time>2014-09-13T07:39:07Z</time>
      </trkpt>
      <trkpt lat="44.41098" lon="4.89759">
        <ele>174.52</ele>
        <time>2014-09-13T07:39:10Z</time>
      </trkpt>
      <trkpt lat="44.41096" lon="4.89768">
        <ele>174.34</ele>
        <time>2014-09-13T07:39:11Z</time>
      </trkpt>
      <trkpt lat="44.41094" lon="4.89777">
        <ele>174.12</ele>
        <time>2014-09-13T07:39:12Z</time>
      </trkpt>
      <trkpt lat="44.41093" lon="4.89786">
        <ele>173.72</ele>
        <time>2014-09-13T07:39:13Z</time>
      </trkpt>
      <trkpt lat="44.41091" lon="4.89796">
        <ele>173.38</ele>
        <time>2014-09-13T07:39:14Z</time>
      </trkpt>
      <trkpt lat="44.41074" lon="4.89873">
        <ele>170.65</ele>
        <time>2014-09-13T07:39:23Z</time>
      </trkpt>
      <trkpt lat="44.41072" lon="4.89885">
        <ele>170.26</ele>
        <time>2014-09-13T07:39:25Z</time>
      </trkpt>
      <trkpt lat="44.41073" lon="4.89891">
        <ele>170.02</ele>
        <time>2014-09-13T07:39:26Z</time>
      </trkpt>
      <trkpt lat="44.41077" lon="4.89903">
        <ele>169.76</ele>
        <time>2014-09-13T07:39:28Z</time>
      </trkpt>
      <trkpt lat="44.41079" lon="4.89909">
        <ele>169.72</ele>
        <time>2014-09-13T07:39:29Z</time>
      </trkpt>
      <trkpt lat="44.41125" lon="4.89983">
        <ele>168.56</ele>
        <time>2014-09-13T07:39:44Z</time>
      </trkpt>
      <trkpt lat="44.41131" lon="4.89991">
        <ele>167.49</ele>
        <time>2014-09-13T07:39:54Z</time>
      </trkpt>
      <trkpt lat="44.41133" lon="4.89992">
        <ele>167.49</ele>
        <time>2014-09-13T07:39:55Z</time>
      </trkpt>
      <trkpt lat="44.41136" lon="4.89998">
        <ele>167.53</ele>
        <time>2014-09-13T07:39:57Z</time>
      </trkpt>
      <trkpt lat="44.41138" lon="4.90001">
        <ele>167.58</ele>
        <time>2014-09-13T07:39:58Z</time>
      </trkpt>
      <trkpt lat="44.4114" lon="4.90005">
        <ele>167.71</ele>
        <time>2014-09-13T07:39:59Z</time>
      </trkpt>
      <trkpt lat="44.41143" lon="4.90008">
        <ele>167.91</ele>
        <time>2014-09-13T07:40:00Z</time>
      </trkpt>
      <trkpt lat="44.41145" lon="4.90012">
        <ele>167.85</ele>
        <time>2014-09-13T07:40:01Z</time>
      </trkpt>
      <trkpt lat="44.41148" lon="4.90016">
        <ele>167.94</ele>
        <time>2014-09-13T07:40:02Z</time>
      </trkpt>
      <trkpt lat="44.4115" lon="4.90019">
        <ele>168.08</ele>
        <time>2014-09-13T07:40:03Z</time>
      </trkpt>
      <trkpt lat="44.41152" lon="4.90023">
        <ele>168.19</ele>
        <time>2014-09-13T07:40:04Z</time>
      </trkpt>
      <trkpt lat="44.41155" lon="4.90027">
        <ele>168.21</ele>
        <time>2014-09-13T07:40:05Z</time>
      </trkpt>
      <trkpt lat="44.41168" lon="4.90049">
        <ele>167.79</ele>
        <time>2014-09-13T07:40:10Z</time>
      </trkpt>
      <trkpt lat="44.41173" lon="4.90058">
        <ele>167.84</ele>
        <time>2014-09-13T07:40:12Z</time>
      </trkpt>
      <trkpt lat="44.41174" lon="4.90063">
        <ele>167.87</ele>
        <time>2014-09-13T07:40:13Z</time>
      </trkpt>
      <trkpt lat="44.41175" lon="4.90067">
        <ele>167.89</ele>
        <time>2014-09-13T07:40:14Z</time>
      </trkpt>
      <trkpt lat="44.41175" lon="4.90071">
        <ele>167.82</ele>
        <time>2014-09-13T07:40:15Z</time>
      </trkpt>
      <trkpt lat="44.41176" lon="4.90074">
        <ele>167.95</ele>
        <time>2014-09-13T07:40:16Z</time>
      </trkpt>
      <trkpt lat="44.41176" lon="4.90078">
        <ele>167.92</ele>
        <time>2014-09-13T07:40:17Z</time>
      </trkpt>
      <trkpt lat="44.41176" lon="4.90081">
        <ele>167.88</ele>
        <time>2014-09-13T07:40:18Z</time>
      </trkpt>
      <trkpt lat="44.41176" lon="4.90084">
        <ele>167.76</ele>
        <time>2014-09-13T07:40:19Z</time>
      </trkpt>
      <trkpt lat="44.41175" lon="4.90086">
        <ele>167.65</ele>
        <time>2014-09-13T07:40:20Z</time>
      </trkpt>
      <trkpt lat="44.41163" lon="4.90098">
        <ele>169.16</ele>
        <time>2014-09-13T07:40:27Z</time>
      </trkpt>
      <trkpt lat="44.41163" lon="4.90101">
        <ele>169.16</ele>
        <time>2014-09-13T07:40:28Z</time>
      </trkpt>
      <trkpt lat="44.4117" lon="4.9011">
        <ele>170.08</ele>
        <time>2014-09-13T07:40:33Z</time>
      </trkpt>
      <trkpt lat="44.41172" lon="4.90111">
        <ele>170.2</ele>
        <time>2014-09-13T07:40:34Z</time>
      </trkpt>
      <trkpt lat="44.41174" lon="4.90111">
        <ele>170.25</ele>
        <time>2014-09-13T07:40:35Z</time>
      </trkpt>
      <trkpt lat="44.41175" lon="4.90111">
        <ele>170.35</ele>
        <time>2014-09-13T07:40:36Z</time>
      </trkpt>
      <trkpt lat="44.41177" lon="4.90112">
        <ele>170.4</ele>
        <time>2014-09-13T07:40:37Z</time>
      </trkpt>
      <trkpt lat="44.41178" lon="4.90113">
        <ele>170.43</ele>
        <time>2014-09-13T07:40:38Z</time>
      </trkpt>
      <trkpt lat="44.41178" lon="4.90115">
        <ele>170.33</ele>
        <time>2014-09-13T07:40:39Z</time>
      </trkpt>
      <trkpt lat="44.41178" lon="4.9012">
        <ele>170.6</ele>
        <time>2014-09-13T07:40:44Z</time>
      </trkpt>
      <trkpt lat="44.41177" lon="4.9012">
        <ele>170.64</ele>
        <time>2014-09-13T07:40:45Z</time>
      </trkpt>
      <trkpt lat="44.41176" lon="4.90121">
        <ele>170.77</ele>
        <time>2014-09-13T07:40:46Z</time>
      </trkpt>
      <trkpt lat="44.41174" lon="4.90121">
        <ele>170.95</ele>
        <time>2014-09-13T07:40:47Z</time>
      </trkpt>
      <trkpt lat="44.41172" lon="4.90122">
        <ele>171.02</ele>
        <time>2014-09-13T07:40:48Z</time>
      </trkpt>
      <trkpt lat="44.4117" lon="4.90122">
        <ele>171.12</ele>
        <time>2014-09-13T07:40:49Z</time>
      </trkpt>
      <trkpt lat="44.41168" lon="4.90121">
        <ele>171.23</ele>
        <time>2014-09-13T07:40:50Z</time>
      </trkpt>
      <trkpt lat="44.41166" lon="4.90122">
        <ele>171.38</ele>
        <time>2014-09-13T07:40:51Z</time>
      </trkpt>
      <trkpt lat="44.41164" lon="4.90122">
        <ele>171.61</ele>
        <time>2014-09-13T07:40:52Z</time>
      </trkpt>
      <trkpt lat="44.41159" lon="4.90123">
        <ele>172.19</ele>
        <time>2014-09-13T07:40:54Z</time>
      </trkpt>
      <trkpt lat="44.41156" lon="4.90124">
        <ele>172.44</ele>
        <time>2014-09-13T07:40:55Z</time>
      </trkpt>
      <trkpt lat="44.41154" lon="4.90124">
        <ele>172.56</ele>
        <time>2014-09-13T07:40:56Z</time>
      </trkpt>
      <trkpt lat="44.41149" lon="4.90125">
        <ele>172.81</ele>
        <time>2014-09-13T07:40:58Z</time>
      </trkpt>
      <trkpt lat="44.41147" lon="4.90126">
        <ele>172.93</ele>
        <time>2014-09-13T07:40:59Z</time>
      </trkpt>
      <trkpt lat="44.41146" lon="4.90126">
        <ele>173.06</ele>
        <time>2014-09-13T07:41:00Z</time>
      </trkpt>
      <trkpt lat="44.41144" lon="4.90126">
        <ele>173.06</ele>
        <time>2014-09-13T07:41:01Z</time>
      </trkpt>
      <trkpt lat="44.41142" lon="4.90126">
        <ele>173.31</ele>
        <time>2014-09-13T07:41:02Z</time>
      </trkpt>
      <trkpt lat="44.41141" lon="4.90126">
        <ele>173.51</ele>
        <time>2014-09-13T07:41:03Z</time>
      </trkpt>
      <trkpt lat="44.4114" lon="4.90125">
        <ele>173.7</ele>
        <time>2014-09-13T07:41:04Z</time>
      </trkpt>
      <trkpt lat="44.41138" lon="4.90125">
        <ele>173.89</ele>
        <time>2014-09-13T07:41:05Z</time>
      </trkpt>
      <trkpt lat="44.41135" lon="4.90124">
        <ele>174.08</ele>
        <time>2014-09-13T07:41:06Z</time>
      </trkpt>
      <trkpt lat="44.41134" lon="4.90124">
        <ele>174.3</ele>
        <time>2014-09-13T07:41:07Z</time>
      </trkpt>
      <trkpt lat="44.41132" lon="4.90124">
        <ele>174.45</ele>
        <time>2014-09-13T07:41:08Z</time>
      </trkpt>
      <trkpt lat="44.41131" lon="4.90124">
        <ele>174.71</ele>
        <time>2014-09-13T07:41:09Z</time>
      </trkpt>
      <trkpt lat="44.41129" lon="4.90124">
        <ele>175</ele>
        <time>2014-09-13T07:41:10Z</time>
      </trkpt>
      <trkpt lat="44.41127" lon="4.90124">
        <ele>175.27</ele>
        <time>2014-09-13T07:41:11Z</time>
      </trkpt>
      <trkpt lat="44.41126" lon="4.90124">
        <ele>175.41</ele>
        <time>2014-09-13T07:41:12Z</time>
      </trkpt>
      <trkpt lat="44.41124" lon="4.90124">
        <ele>175.61</ele>
        <time>2014-09-13T07:41:13Z</time>
      </trkpt>
      <trkpt lat="44.41122" lon="4.90123">
        <ele>175.8</ele>
        <time>2014-09-13T07:41:14Z</time>
      </trkpt>
      <trkpt lat="44.41119" lon="4.90123">
        <ele>176.05</ele>
        <time>2014-09-13T07:41:16Z</time>
      </trkpt>
      <trkpt lat="44.41117" lon="4.90123">
        <ele>176.18</ele>
        <time>2014-09-13T07:41:17Z</time>
      </trkpt>
      <trkpt lat="44.41115" lon="4.90123">
        <ele>176.31</ele>
        <time>2014-09-13T07:41:18Z</time>
      </trkpt>
      <trkpt lat="44.41113" lon="4.90123">
        <ele>176.37</ele>
        <time>2014-09-13T07:41:19Z</time>
      </trkpt>
      <trkpt lat="44.41112" lon="4.90122">
        <ele>176.49</ele>
        <time>2014-09-13T07:41:20Z</time>
      </trkpt>
      <trkpt lat="44.4111" lon="4.90121">
        <ele>176.73</ele>
        <time>2014-09-13T07:41:21Z</time>
      </trkpt>
      <trkpt lat="44.41108" lon="4.9012">
        <ele>176.92</ele>
        <time>2014-09-13T07:41:22Z</time>
      </trkpt>
      <trkpt lat="44.41107" lon="4.90119">
        <ele>177.05</ele>
        <time>2014-09-13T07:41:23Z</time>
      </trkpt>
      <trkpt lat="44.41105" lon="4.90119">
        <ele>177.13</ele>
        <time>2014-09-13T07:41:24Z</time>
      </trkpt>
      <trkpt lat="44.41103" lon="4.90119">
        <ele>177.26</ele>
        <time>2014-09-13T07:41:25Z</time>
      </trkpt>
      <trkpt lat="44.41101" lon="4.90119">
        <ele>177.32</ele>
        <time>2014-09-13T07:41:26Z</time>
      </trkpt>
      <trkpt lat="44.41099" lon="4.90119">
        <ele>177.35</ele>
        <time>2014-09-13T07:41:27Z</time>
      </trkpt>
      <trkpt lat="44.41097" lon="4.90119">
        <ele>177.25</ele>
        <time>2014-09-13T07:41:28Z</time>
      </trkpt>
      <trkpt lat="44.41095" lon="4.9012">
        <ele>177.13</ele>
        <time>2014-09-13T07:41:29Z</time>
      </trkpt>
      <trkpt lat="44.41093" lon="4.90121">
        <ele>177.06</ele>
        <time>2014-09-13T07:41:30Z</time>
      </trkpt>
      <trkpt lat="44.41091" lon="4.90122">
        <ele>176.98</ele>
        <time>2014-09-13T07:41:31Z</time>
      </trkpt>
      <trkpt lat="44.41089" lon="4.90123">
        <ele>176.94</ele>
        <time>2014-09-13T07:41:32Z</time>
      </trkpt>
      <trkpt lat="44.41087" lon="4.90125">
        <ele>176.92</ele>
        <time>2014-09-13T07:41:33Z</time>
      </trkpt>
      <trkpt lat="44.41086" lon="4.90128">
        <ele>176.92</ele>
        <time>2014-09-13T07:41:34Z</time>
      </trkpt>
      <trkpt lat="44.41084" lon="4.90131">
        <ele>177.08</ele>
        <time>2014-09-13T07:41:36Z</time>
      </trkpt>
      <trkpt lat="44.41083" lon="4.90134">
        <ele>177.25</ele>
        <time>2014-09-13T07:41:37Z</time>
      </trkpt>
      <trkpt lat="44.41082" lon="4.90136">
        <ele>177.39</ele>
        <time>2014-09-13T07:41:38Z</time>
      </trkpt>
      <trkpt lat="44.41081" lon="4.90141">
        <ele>178.03</ele>
        <time>2014-09-13T07:41:40Z</time>
      </trkpt>
      <trkpt lat="44.4108" lon="4.90143">
        <ele>178.3</ele>
        <time>2014-09-13T07:41:41Z</time>
      </trkpt>
      <trkpt lat="44.4108" lon="4.90145">
        <ele>178.53</ele>
        <time>2014-09-13T07:41:42Z</time>
      </trkpt>
      <trkpt lat="44.41077" lon="4.9016">
        <ele>180.34</ele>
        <time>2014-09-13T07:41:49Z</time>
      </trkpt>
      <trkpt lat="44.4107" lon="4.90186">
        <ele>182.45</ele>
        <time>2014-09-13T07:42:00Z</time>
      </trkpt>
      <trkpt lat="44.41069" lon="4.90191">
        <ele>182.72</ele>
        <time>2014-09-13T07:42:02Z</time>
      </trkpt>
      <trkpt lat="44.41063" lon="4.90227">
        <ele>183.92</ele>
        <time>2014-09-13T07:42:15Z</time>
      </trkpt>
      <trkpt lat="44.41058" lon="4.90243">
        <ele>184.03</ele>
        <time>2014-09-13T07:42:20Z</time>
      </trkpt>
      <trkpt lat="44.41058" lon="4.90246">
        <ele>183.98</ele>
        <time>2014-09-13T07:42:21Z</time>
      </trkpt>
      <trkpt lat="44.41057" lon="4.90249">
        <ele>184.01</ele>
        <time>2014-09-13T07:42:22Z</time>
      </trkpt>
      <trkpt lat="44.41046" lon="4.90304">
        <ele>183.65</ele>
        <time>2014-09-13T07:42:35Z</time>
      </trkpt>
      <trkpt lat="44.41043" lon="4.90332">
        <ele>183.84</ele>
        <time>2014-09-13T07:42:41Z</time>
      </trkpt>
      <trkpt lat="44.41029" lon="4.90398">
        <ele>184.84</ele>
        <time>2014-09-13T07:42:57Z</time>
      </trkpt>
      <trkpt lat="44.41025" lon="4.90419">
        <ele>185.05</ele>
        <time>2014-09-13T07:43:03Z</time>
      </trkpt>
      <trkpt lat="44.41022" lon="4.90437">
        <ele>184.79</ele>
        <time>2014-09-13T07:43:08Z</time>
      </trkpt>
      <trkpt lat="44.41021" lon="4.9044">
        <ele>184.83</ele>
        <time>2014-09-13T07:43:09Z</time>
      </trkpt>
      <trkpt lat="44.41016" lon="4.90465">
        <ele>185.28</ele>
        <time>2014-09-13T07:43:16Z</time>
      </trkpt>
      <trkpt lat="44.41015" lon="4.90469">
        <ele>185.37</ele>
        <time>2014-09-13T07:43:17Z</time>
      </trkpt>
      <trkpt lat="44.41002" lon="4.90536">
        <ele>187.31</ele>
        <time>2014-09-13T07:43:33Z</time>
      </trkpt>
      <trkpt lat="44.40987" lon="4.90604">
        <ele>187.62</ele>
        <time>2014-09-13T07:43:47Z</time>
      </trkpt>
      <trkpt lat="44.40986" lon="4.90609">
        <ele>187.49</ele>
        <time>2014-09-13T07:43:48Z</time>
      </trkpt>
      <trkpt lat="44.40973" lon="4.90662">
        <ele>186.49</ele>
        <time>2014-09-13T07:43:58Z</time>
      </trkpt>
      <trkpt lat="44.40972" lon="4.90667">
        <ele>186.2</ele>
        <time>2014-09-13T07:43:59Z</time>
      </trkpt>
      <trkpt lat="44.40971" lon="4.90673">
        <ele>185.83</ele>
        <time>2014-09-13T07:44:00Z</time>
      </trkpt>
      <trkpt lat="44.4097" lon="4.90678">
        <ele>185.41</ele>
        <time>2014-09-13T07:44:01Z</time>
      </trkpt>
      <trkpt lat="44.4097" lon="4.90684">
        <ele>185.17</ele>
        <time>2014-09-13T07:44:02Z</time>
      </trkpt>
      <trkpt lat="44.40969" lon="4.9069">
        <ele>185.09</ele>
        <time>2014-09-13T07:44:03Z</time>
      </trkpt>
      <trkpt lat="44.40969" lon="4.90695">
        <ele>184.93</ele>
        <time>2014-09-13T07:44:04Z</time>
      </trkpt>
      <trkpt lat="44.40969" lon="4.907">
        <ele>184.83</ele>
        <time>2014-09-13T07:44:05Z</time>
      </trkpt>
      <trkpt lat="44.4097" lon="4.90705">
        <ele>184.71</ele>
        <time>2014-09-13T07:44:06Z</time>
      </trkpt>
      <trkpt lat="44.40972" lon="4.9071">
        <ele>184.63</ele>
        <time>2014-09-13T07:44:07Z</time>
      </trkpt>
      <trkpt lat="44.40973" lon="4.90715">
        <ele>184.6</ele>
        <time>2014-09-13T07:44:08Z</time>
      </trkpt>
      <trkpt lat="44.40974" lon="4.90719">
        <ele>184.5</ele>
        <time>2014-09-13T07:44:09Z</time>
      </trkpt>
      <trkpt lat="44.40976" lon="4.90723">
        <ele>184.38</ele>
        <time>2014-09-13T07:44:10Z</time>
      </trkpt>
      <trkpt lat="44.41007" lon="4.90751">
        <ele>184.48</ele>
        <time>2014-09-13T07:44:20Z</time>
      </trkpt>
      <trkpt lat="44.41053" lon="4.90766">
        <ele>187.5</ele>
        <time>2014-09-13T07:44:34Z</time>
      </trkpt>
      <trkpt lat="44.41108" lon="4.908">
        <ele>188.48</ele>
        <time>2014-09-13T07:44:50Z</time>
      </trkpt>
      <trkpt lat="44.41115" lon="4.90804">
        <ele>188.81</ele>
        <time>2014-09-13T07:44:52Z</time>
      </trkpt>
      <trkpt lat="44.41118" lon="4.90806">
        <ele>189.02</ele>
        <time>2014-09-13T07:44:53Z</time>
      </trkpt>
      <trkpt lat="44.41157" lon="4.90835">
        <ele>189</ele>
        <time>2014-09-13T07:45:06Z</time>
      </trkpt>
      <trkpt lat="44.41196" lon="4.90862">
        <ele>190.57</ele>
        <time>2014-09-13T07:45:20Z</time>
      </trkpt>
      <trkpt lat="44.41233" lon="4.90859">
        <ele>190.25</ele>
        <time>2014-09-13T07:45:33Z</time>
      </trkpt>
      <trkpt lat="44.41275" lon="4.90844">
        <ele>192.48</ele>
        <time>2014-09-13T07:45:48Z</time>
      </trkpt>
      <trkpt lat="44.41317" lon="4.90859">
        <ele>193.01</ele>
        <time>2014-09-13T07:46:02Z</time>
      </trkpt>
      <trkpt lat="44.41326" lon="4.90861">
        <ele>193.05</ele>
        <time>2014-09-13T07:46:05Z</time>
      </trkpt>
      <trkpt lat="44.41329" lon="4.90862">
        <ele>193.06</ele>
        <time>2014-09-13T07:46:06Z</time>
      </trkpt>
      <trkpt lat="44.41378" lon="4.90876">
        <ele>193.71</ele>
        <time>2014-09-13T07:46:21Z</time>
      </trkpt>
      <trkpt lat="44.41404" lon="4.90891">
        <ele>194.26</ele>
        <time>2014-09-13T07:46:29Z</time>
      </trkpt>
      <trkpt lat="44.41407" lon="4.90894">
        <ele>194.44</ele>
        <time>2014-09-13T07:46:30Z</time>
      </trkpt>
      <trkpt lat="44.4141" lon="4.90896">
        <ele>194.61</ele>
        <time>2014-09-13T07:46:31Z</time>
      </trkpt>
      <trkpt lat="44.41413" lon="4.90898">
        <ele>194.77</ele>
        <time>2014-09-13T07:46:32Z</time>
      </trkpt>
      <trkpt lat="44.41417" lon="4.909">
        <ele>194.86</ele>
        <time>2014-09-13T07:46:33Z</time>
      </trkpt>
      <trkpt lat="44.41422" lon="4.90906">
        <ele>194.95</ele>
        <time>2014-09-13T07:46:35Z</time>
      </trkpt>
      <trkpt lat="44.41425" lon="4.90909">
        <ele>194.92</ele>
        <time>2014-09-13T07:46:36Z</time>
      </trkpt>
      <trkpt lat="44.41428" lon="4.90912">
        <ele>194.82</ele>
        <time>2014-09-13T07:46:37Z</time>
      </trkpt>
      <trkpt lat="44.41431" lon="4.90914">
        <ele>194.64</ele>
        <time>2014-09-13T07:46:38Z</time>
      </trkpt>
      <trkpt lat="44.41433" lon="4.90917">
        <ele>194.43</ele>
        <time>2014-09-13T07:46:39Z</time>
      </trkpt>
      <trkpt lat="44.41458" lon="4.90939">
        <ele>194.31</ele>
        <time>2014-09-13T07:46:49Z</time>
      </trkpt>
      <trkpt lat="44.4147" lon="4.90945">
        <ele>194.46</ele>
        <time>2014-09-13T07:46:52Z</time>
      </trkpt>
      <trkpt lat="44.41474" lon="4.90947">
        <ele>194.44</ele>
        <time>2014-09-13T07:46:53Z</time>
      </trkpt>
      <trkpt lat="44.41523" lon="4.90973">
        <ele>193.83</ele>
        <time>2014-09-13T07:47:06Z</time>
      </trkpt>
      <trkpt lat="44.41551" lon="4.90975">
        <ele>190.78</ele>
        <time>2014-09-13T07:47:13Z</time>
      </trkpt>
      <trkpt lat="44.41556" lon="4.90974">
        <ele>190.21</ele>
        <time>2014-09-13T07:47:14Z</time>
      </trkpt>
      <trkpt lat="44.41561" lon="4.90972">
        <ele>189.37</ele>
        <time>2014-09-13T07:47:15Z</time>
      </trkpt>
      <trkpt lat="44.41566" lon="4.90969">
        <ele>188.38</ele>
        <time>2014-09-13T07:47:16Z</time>
      </trkpt>
      <trkpt lat="44.41569" lon="4.90967">
        <ele>187.5</ele>
        <time>2014-09-13T07:47:17Z</time>
      </trkpt>
      <trkpt lat="44.41572" lon="4.90962">
        <ele>186.74</ele>
        <time>2014-09-13T07:47:18Z</time>
      </trkpt>
      <trkpt lat="44.41576" lon="4.90958">
        <ele>186</ele>
        <time>2014-09-13T07:47:19Z</time>
      </trkpt>
      <trkpt lat="44.41587" lon="4.90951">
        <ele>183.35</ele>
        <time>2014-09-13T07:47:22Z</time>
      </trkpt>
      <trkpt lat="44.41591" lon="4.90951">
        <ele>182.54</ele>
        <time>2014-09-13T07:47:23Z</time>
      </trkpt>
      <trkpt lat="44.41596" lon="4.9095">
        <ele>181.74</ele>
        <time>2014-09-13T07:47:24Z</time>
      </trkpt>
      <trkpt lat="44.416" lon="4.90951">
        <ele>180.88</ele>
        <time>2014-09-13T07:47:25Z</time>
      </trkpt>
      <trkpt lat="44.41622" lon="4.90953">
        <ele>176.87</ele>
        <time>2014-09-13T07:47:30Z</time>
      </trkpt>
      <trkpt lat="44.41631" lon="4.90952">
        <ele>173.87</ele>
        <time>2014-09-13T07:47:39Z</time>
      </trkpt>
      <trkpt lat="44.41641" lon="4.90952">
        <ele>173.58</ele>
        <time>2014-09-13T07:48:24Z</time>
      </trkpt>
      <trkpt lat="44.41647" lon="4.90955">
        <ele>173.85</ele>
        <time>2014-09-13T07:49:24Z</time>
      </trkpt>
      <trkpt lat="44.41685" lon="4.90995">
        <ele>172.91</ele>
        <time>2014-09-13T07:49:38Z</time>
      </trkpt>
      <trkpt lat="44.41687" lon="4.91">
        <ele>172.76</ele>
        <time>2014-09-13T07:49:39Z</time>
      </trkpt>
      <trkpt lat="44.41691" lon="4.91011">
        <ele>172.6</ele>
        <time>2014-09-13T07:49:41Z</time>
      </trkpt>
      <trkpt lat="44.41692" lon="4.91017">
        <ele>172.62</ele>
        <time>2014-09-13T07:49:42Z</time>
      </trkpt>
      <trkpt lat="44.41692" lon="4.91023">
        <ele>172.63</ele>
        <time>2014-09-13T07:49:43Z</time>
      </trkpt>
      <trkpt lat="44.41692" lon="4.9103">
        <ele>172.81</ele>
        <time>2014-09-13T07:49:44Z</time>
      </trkpt>
      <trkpt lat="44.41691" lon="4.91037">
        <ele>172.9</ele>
        <time>2014-09-13T07:49:45Z</time>
      </trkpt>
      <trkpt lat="44.4169" lon="4.91044">
        <ele>172.9</ele>
        <time>2014-09-13T07:49:46Z</time>
      </trkpt>
      <trkpt lat="44.41688" lon="4.91051">
        <ele>172.98</ele>
        <time>2014-09-13T07:49:47Z</time>
      </trkpt>
      <trkpt lat="44.41686" lon="4.91057">
        <ele>173.01</ele>
        <time>2014-09-13T07:49:48Z</time>
      </trkpt>
      <trkpt lat="44.41681" lon="4.91069">
        <ele>172.94</ele>
        <time>2014-09-13T07:49:50Z</time>
      </trkpt>
      <trkpt lat="44.41638" lon="4.91162">
        <ele>171.19</ele>
        <time>2014-09-13T07:50:04Z</time>
      </trkpt>
      <trkpt lat="44.41626" lon="4.91188">
        <ele>171.04</ele>
        <time>2014-09-13T07:50:08Z</time>
      </trkpt>
      <trkpt lat="44.41623" lon="4.91195">
        <ele>171.04</ele>
        <time>2014-09-13T07:50:09Z</time>
      </trkpt>
      <trkpt lat="44.41619" lon="4.91209">
        <ele>171.09</ele>
        <time>2014-09-13T07:50:11Z</time>
      </trkpt>
      <trkpt lat="44.41609" lon="4.91271">
        <ele>171.44</ele>
        <time>2014-09-13T07:50:20Z</time>
      </trkpt>
      <trkpt lat="44.41604" lon="4.91365">
        <ele>170.66</ele>
        <time>2014-09-13T07:50:35Z</time>
      </trkpt>
      <trkpt lat="44.41603" lon="4.91371">
        <ele>170.72</ele>
        <time>2014-09-13T07:50:36Z</time>
      </trkpt>
      <trkpt lat="44.41603" lon="4.91376">
        <ele>170.76</ele>
        <time>2014-09-13T07:50:37Z</time>
      </trkpt>
      <trkpt lat="44.41601" lon="4.9139">
        <ele>170.55</ele>
        <time>2014-09-13T07:50:47Z</time>
      </trkpt>
      <trkpt lat="44.41602" lon="4.91391">
        <ele>170.55</ele>
        <time>2014-09-13T07:50:48Z</time>
      </trkpt>
      <trkpt lat="44.41609" lon="4.9139">
        <ele>171.05</ele>
        <time>2014-09-13T07:50:59Z</time>
      </trkpt>
      <trkpt lat="44.41607" lon="4.91395">
        <ele>171.25</ele>
        <time>2014-09-13T07:51:22Z</time>
      </trkpt>
      <trkpt lat="44.41605" lon="4.91417">
        <ele>172.25</ele>
        <time>2014-09-13T07:51:31Z</time>
      </trkpt>
      <trkpt lat="44.41605" lon="4.9142">
        <ele>172.74</ele>
        <time>2014-09-13T07:51:32Z</time>
      </trkpt>
      <trkpt lat="44.41606" lon="4.91423">
        <ele>173.18</ele>
        <time>2014-09-13T07:51:33Z</time>
      </trkpt>
      <trkpt lat="44.41606" lon="4.91425">
        <ele>173.59</ele>
        <time>2014-09-13T07:51:34Z</time>
      </trkpt>
      <trkpt lat="44.41606" lon="4.91427">
        <ele>174.06</ele>
        <time>2014-09-13T07:51:35Z</time>
      </trkpt>
      <trkpt lat="44.41605" lon="4.91429">
        <ele>174.48</ele>
        <time>2014-09-13T07:51:36Z</time>
      </trkpt>
      <trkpt lat="44.41605" lon="4.91431">
        <ele>174.81</ele>
        <time>2014-09-13T07:51:37Z</time>
      </trkpt>
      <trkpt lat="44.41605" lon="4.91434">
        <ele>175.09</ele>
        <time>2014-09-13T07:51:38Z</time>
      </trkpt>
      <trkpt lat="44.41604" lon="4.91439">
        <ele>175.9</ele>
        <time>2014-09-13T07:51:40Z</time>
      </trkpt>
      <trkpt lat="44.41604" lon="4.91443">
        <ele>176.89</ele>
        <time>2014-09-13T07:51:42Z</time>
      </trkpt>
      <trkpt lat="44.41603" lon="4.91446">
        <ele>177.32</ele>
        <time>2014-09-13T07:51:43Z</time>
      </trkpt>
      <trkpt lat="44.41603" lon="4.91448">
        <ele>177.83</ele>
        <time>2014-09-13T07:51:44Z</time>
      </trkpt>
      <trkpt lat="44.41602" lon="4.91455">
        <ele>179.36</ele>
        <time>2014-09-13T07:51:47Z</time>
      </trkpt>
      <trkpt lat="44.41602" lon="4.91461">
        <ele>179.7</ele>
        <time>2014-09-13T07:51:49Z</time>
      </trkpt>
      <trkpt lat="44.41602" lon="4.91464">
        <ele>179.84</ele>
        <time>2014-09-13T07:51:50Z</time>
      </trkpt>
      <trkpt lat="44.41602" lon="4.91467">
        <ele>179.91</ele>
        <time>2014-09-13T07:51:51Z</time>
      </trkpt>
      <trkpt lat="44.41604" lon="4.91495">
        <ele>182.48</ele>
        <time>2014-09-13T07:52:03Z</time>
      </trkpt>
      <trkpt lat="44.41604" lon="4.91517">
        <ele>185.92</ele>
        <time>2014-09-13T07:52:13Z</time>
      </trkpt>
      <trkpt lat="44.41606" lon="4.91525">
        <ele>187.22</ele>
        <time>2014-09-13T07:52:16Z</time>
      </trkpt>
      <trkpt lat="44.41604" lon="4.91554">
        <ele>188.76</ele>
        <time>2014-09-13T07:52:30Z</time>
      </trkpt>
      <trkpt lat="44.416" lon="4.91566">
        <ele>189.27</ele>
        <time>2014-09-13T07:52:36Z</time>
      </trkpt>
      <trkpt lat="44.4159" lon="4.91584">
        <ele>189.54</ele>
        <time>2014-09-13T07:52:45Z</time>
      </trkpt>
      <trkpt lat="44.41588" lon="4.9159">
        <ele>189.57</ele>
        <time>2014-09-13T07:52:47Z</time>
      </trkpt>
      <trkpt lat="44.4158" lon="4.91604">
        <ele>189.27</ele>
        <time>2014-09-13T07:52:54Z</time>
      </trkpt>
      <trkpt lat="44.41574" lon="4.91614">
        <ele>190.13</ele>
        <time>2014-09-13T07:53:12Z</time>
      </trkpt>
      <trkpt lat="44.41568" lon="4.91622">
        <ele>189.5</ele>
        <time>2014-09-13T07:53:52Z</time>
      </trkpt>
      <trkpt lat="44.41562" lon="4.91629">
        <ele>189.22</ele>
        <time>2014-09-13T07:53:56Z</time>
      </trkpt>
      <trkpt lat="44.4156" lon="4.91632">
        <ele>189.46</ele>
        <time>2014-09-13T07:53:59Z</time>
      </trkpt>
      <trkpt lat="44.4156" lon="4.91641">
        <ele>190.79</ele>
        <time>2014-09-13T07:54:15Z</time>
      </trkpt>
      <trkpt lat="44.41555" lon="4.91643">
        <ele>189.84</ele>
        <time>2014-09-13T07:54:39Z</time>
      </trkpt>
      <trkpt lat="44.41553" lon="4.91662">
        <ele>190.42</ele>
        <time>2014-09-13T07:54:46Z</time>
      </trkpt>
      <trkpt lat="44.41553" lon="4.9167">
        <ele>190.57</ele>
        <time>2014-09-13T07:54:48Z</time>
      </trkpt>
      <trkpt lat="44.41552" lon="4.91674">
        <ele>190.45</ele>
        <time>2014-09-13T07:54:49Z</time>
      </trkpt>
      <trkpt lat="44.41551" lon="4.91681">
        <ele>190.67</ele>
        <time>2014-09-13T07:54:51Z</time>
      </trkpt>
      <trkpt lat="44.4155" lon="4.91684">
        <ele>190.85</ele>
        <time>2014-09-13T07:54:52Z</time>
      </trkpt>
      <trkpt lat="44.4155" lon="4.91687">
        <ele>190.92</ele>
        <time>2014-09-13T07:54:53Z</time>
      </trkpt>
      <trkpt lat="44.4155" lon="4.9169">
        <ele>191.05</ele>
        <time>2014-09-13T07:54:54Z</time>
      </trkpt>
      <trkpt lat="44.4155" lon="4.91692">
        <ele>191.09</ele>
        <time>2014-09-13T07:54:55Z</time>
      </trkpt>
      <trkpt lat="44.41549" lon="4.91695">
        <ele>191.11</ele>
        <time>2014-09-13T07:54:56Z</time>
      </trkpt>
      <trkpt lat="44.41548" lon="4.91701">
        <ele>190.86</ele>
        <time>2014-09-13T07:54:58Z</time>
      </trkpt>
      <trkpt lat="44.41548" lon="4.91704">
        <ele>190.77</ele>
        <time>2014-09-13T07:54:59Z</time>
      </trkpt>
      <trkpt lat="44.41547" lon="4.91708">
        <ele>190.72</ele>
        <time>2014-09-13T07:55:00Z</time>
      </trkpt>
      <trkpt lat="44.41547" lon="4.91711">
        <ele>190.71</ele>
        <time>2014-09-13T07:55:01Z</time>
      </trkpt>
      <trkpt lat="44.41547" lon="4.91714">
        <ele>190.73</ele>
        <time>2014-09-13T07:55:02Z</time>
      </trkpt>
      <trkpt lat="44.41546" lon="4.91717">
        <ele>190.88</ele>
        <time>2014-09-13T07:55:03Z</time>
      </trkpt>
      <trkpt lat="44.41546" lon="4.91721">
        <ele>191.15</ele>
        <time>2014-09-13T07:55:04Z</time>
      </trkpt>
      <trkpt lat="44.41545" lon="4.91724">
        <ele>191.39</ele>
        <time>2014-09-13T07:55:05Z</time>
      </trkpt>
      <trkpt lat="44.41545" lon="4.91727">
        <ele>191.56</ele>
        <time>2014-09-13T07:55:06Z</time>
      </trkpt>
      <trkpt lat="44.41545" lon="4.91746">
        <ele>192.03</ele>
        <time>2014-09-13T07:55:10Z</time>
      </trkpt>
      <trkpt lat="44.41552" lon="4.91776">
        <ele>191.66</ele>
        <time>2014-09-13T07:55:16Z</time>
      </trkpt>
      <trkpt lat="44.41563" lon="4.91809">
        <ele>191.13</ele>
        <time>2014-09-13T07:55:22Z</time>
      </trkpt>
      <trkpt lat="44.41571" lon="4.91829">
        <ele>191.04</ele>
        <time>2014-09-13T07:55:26Z</time>
      </trkpt>
      <trkpt lat="44.41579" lon="4.91852">
        <ele>190.29</ele>
        <time>2014-09-13T07:55:30Z</time>
      </trkpt>
      <trkpt lat="44.4158" lon="4.91892">
        <ele>190.05</ele>
        <time>2014-09-13T07:55:37Z</time>
      </trkpt>
      <trkpt lat="44.41579" lon="4.91911">
        <ele>190.17</ele>
        <time>2014-09-13T07:55:40Z</time>
      </trkpt>
      <trkpt lat="44.41581" lon="4.91942">
        <ele>190.69</ele>
        <time>2014-09-13T07:55:45Z</time>
      </trkpt>
      <trkpt lat="44.41587" lon="4.91974">
        <ele>190.13</ele>
        <time>2014-09-13T07:55:51Z</time>
      </trkpt>
      <trkpt lat="44.41592" lon="4.92007">
        <ele>190.38</ele>
        <time>2014-09-13T07:56:06Z</time>
      </trkpt>
      <trkpt lat="44.41592" lon="4.9201">
        <ele>190.43</ele>
        <time>2014-09-13T07:56:12Z</time>
      </trkpt>
      <trkpt lat="44.41594" lon="4.9202">
        <ele>190.47</ele>
        <time>2014-09-13T07:56:17Z</time>
      </trkpt>
      <trkpt lat="44.41601" lon="4.92076">
        <ele>190.57</ele>
        <time>2014-09-13T07:56:31Z</time>
      </trkpt>
      <trkpt lat="44.4161" lon="4.92124">
        <ele>191.46</ele>
        <time>2014-09-13T07:56:42Z</time>
      </trkpt>
      <trkpt lat="44.41613" lon="4.92151">
        <ele>192.34</ele>
        <time>2014-09-13T07:56:48Z</time>
      </trkpt>
      <trkpt lat="44.41614" lon="4.92171">
        <ele>192.64</ele>
        <time>2014-09-13T07:56:53Z</time>
      </trkpt>
      <trkpt lat="44.41615" lon="4.92179">
        <ele>192.68</ele>
        <time>2014-09-13T07:56:55Z</time>
      </trkpt>
      <trkpt lat="44.41615" lon="4.92195">
        <ele>193.2</ele>
        <time>2014-09-13T07:56:59Z</time>
      </trkpt>
      <trkpt lat="44.41615" lon="4.92204">
        <ele>193.54</ele>
        <time>2014-09-13T07:57:01Z</time>
      </trkpt>
      <trkpt lat="44.41614" lon="4.92208">
        <ele>193.67</ele>
        <time>2014-09-13T07:57:02Z</time>
      </trkpt>
      <trkpt lat="44.41614" lon="4.92212">
        <ele>193.86</ele>
        <time>2014-09-13T07:57:03Z</time>
      </trkpt>
      <trkpt lat="44.41614" lon="4.92214">
        <ele>193.95</ele>
        <time>2014-09-13T07:57:04Z</time>
      </trkpt>
      <trkpt lat="44.41614" lon="4.92217">
        <ele>194.04</ele>
        <time>2014-09-13T07:57:05Z</time>
      </trkpt>
      <trkpt lat="44.41614" lon="4.92219">
        <ele>194.15</ele>
        <time>2014-09-13T07:57:06Z</time>
      </trkpt>
      <trkpt lat="44.41614" lon="4.9222">
        <ele>194.24</ele>
        <time>2014-09-13T07:57:07Z</time>
      </trkpt>
      <trkpt lat="44.41613" lon="4.92222">
        <ele>194.38</ele>
        <time>2014-09-13T07:57:08Z</time>
      </trkpt>
      <trkpt lat="44.41613" lon="4.92225">
        <ele>194.48</ele>
        <time>2014-09-13T07:57:09Z</time>
      </trkpt>
      <trkpt lat="44.41612" lon="4.92227">
        <ele>194.54</ele>
        <time>2014-09-13T07:57:10Z</time>
      </trkpt>
      <trkpt lat="44.41612" lon="4.9223">
        <ele>194.53</ele>
        <time>2014-09-13T07:57:11Z</time>
      </trkpt>
      <trkpt lat="44.41619" lon="4.92257">
        <ele>195.06</ele>
        <time>2014-09-13T07:57:22Z</time>
      </trkpt>
      <trkpt lat="44.41621" lon="4.92268">
        <ele>194.97</ele>
        <time>2014-09-13T07:57:27Z</time>
      </trkpt>
      <trkpt lat="44.41622" lon="4.92269">
        <ele>195.03</ele>
        <time>2014-09-13T07:57:28Z</time>
      </trkpt>
      <trkpt lat="44.41623" lon="4.92273">
        <ele>194.71</ele>
        <time>2014-09-13T07:57:45Z</time>
      </trkpt>
      <trkpt lat="44.41624" lon="4.92276">
        <ele>194.36</ele>
        <time>2014-09-13T07:58:20Z</time>
      </trkpt>
      <trkpt lat="44.41618" lon="4.92923">
        <ele>181.58</ele>
        <time>2014-09-13T08:05:06Z</time>
      </trkpt>
      <trkpt lat="44.41618" lon="4.92923">
        <ele>181.61</ele>
        <time>2014-09-13T08:05:07Z</time>
      </trkpt>
      <trkpt lat="44.4162" lon="4.92927">
        <ele>181.99</ele>
        <time>2014-09-13T08:05:48Z</time>
      </trkpt>
      <trkpt lat="44.41621" lon="4.92928">
        <ele>182</ele>
        <time>2014-09-13T08:05:49Z</time>
      </trkpt>
      <trkpt lat="44.41621" lon="4.9293">
        <ele>182.02</ele>
        <time>2014-09-13T08:05:50Z</time>
      </trkpt>
      <trkpt lat="44.41624" lon="4.92981">
        <ele>182.35</ele>
        <time>2014-09-13T08:06:07Z</time>
      </trkpt>
      <trkpt lat="44.41629" lon="4.93042">
        <ele>182.21</ele>
        <time>2014-09-13T08:06:25Z</time>
      </trkpt>
      <trkpt lat="44.41636" lon="4.93043">
        <ele>182.21</ele>
        <time>2014-09-13T08:06:28Z</time>
      </trkpt>
      <trkpt lat="44.41639" lon="4.93042">
        <ele>182.21</ele>
        <time>2014-09-13T08:06:29Z</time>
      </trkpt>
      <trkpt lat="44.41643" lon="4.93039">
        <ele>182.3</ele>
        <time>2014-09-13T08:06:31Z</time>
      </trkpt>
      <trkpt lat="44.41645" lon="4.93038">
        <ele>182.37</ele>
        <time>2014-09-13T08:06:32Z</time>
      </trkpt>
      <trkpt lat="44.41648" lon="4.93037">
        <ele>182.43</ele>
        <time>2014-09-13T08:06:33Z</time>
      </trkpt>
      <trkpt lat="44.41692" lon="4.93008">
        <ele>184.85</ele>
        <time>2014-09-13T08:06:52Z</time>
      </trkpt>
      <trkpt lat="44.41713" lon="4.92991">
        <ele>187.95</ele>
        <time>2014-09-13T08:07:01Z</time>
      </trkpt>
      <trkpt lat="44.41747" lon="4.92966">
        <ele>190.68</ele>
        <time>2014-09-13T08:07:17Z</time>
      </trkpt>
      <trkpt lat="44.4178" lon="4.92955">
        <ele>192.46</ele>
        <time>2014-09-13T08:07:32Z</time>
      </trkpt>
      <trkpt lat="44.41791" lon="4.92951">
        <ele>192.76</ele>
        <time>2014-09-13T08:07:38Z</time>
      </trkpt>
      <trkpt lat="44.41793" lon="4.92951">
        <ele>192.84</ele>
        <time>2014-09-13T08:07:39Z</time>
      </trkpt>
      <trkpt lat="44.41796" lon="4.92951">
        <ele>192.99</ele>
        <time>2014-09-13T08:07:40Z</time>
      </trkpt>
      <trkpt lat="44.41827" lon="4.92952">
        <ele>194.04</ele>
        <time>2014-09-13T08:07:52Z</time>
      </trkpt>
      <trkpt lat="44.41844" lon="4.92944">
        <ele>194.68</ele>
        <time>2014-09-13T08:07:59Z</time>
      </trkpt>
      <trkpt lat="44.4189" lon="4.92914">
        <ele>196.54</ele>
        <time>2014-09-13T08:08:17Z</time>
      </trkpt>
      <trkpt lat="44.4192" lon="4.92925">
        <ele>199.15</ele>
        <time>2014-09-13T08:08:31Z</time>
      </trkpt>
      <trkpt lat="44.41929" lon="4.92927">
        <ele>199.23</ele>
        <time>2014-09-13T08:08:35Z</time>
      </trkpt>
      <trkpt lat="44.41939" lon="4.92923">
        <ele>199.48</ele>
        <time>2014-09-13T08:08:39Z</time>
      </trkpt>
      <trkpt lat="44.41962" lon="4.92909">
        <ele>200.39</ele>
        <time>2014-09-13T08:08:49Z</time>
      </trkpt>
      <trkpt lat="44.41972" lon="4.9291">
        <ele>201.58</ele>
        <time>2014-09-13T08:08:53Z</time>
      </trkpt>
      <trkpt lat="44.42006" lon="4.92921">
        <ele>201.31</ele>
        <time>2014-09-13T08:09:05Z</time>
      </trkpt>
      <trkpt lat="44.42025" lon="4.92922">
        <ele>201.82</ele>
        <time>2014-09-13T08:09:12Z</time>
      </trkpt>
      <trkpt lat="44.42027" lon="4.92922">
        <ele>201.93</ele>
        <time>2014-09-13T08:09:13Z</time>
      </trkpt>
      <trkpt lat="44.42052" lon="4.92921">
        <ele>203.07</ele>
        <time>2014-09-13T08:09:22Z</time>
      </trkpt>
      <trkpt lat="44.42064" lon="4.92927">
        <ele>204.5</ele>
        <time>2014-09-13T08:09:27Z</time>
      </trkpt>
      <trkpt lat="44.42101" lon="4.92941">
        <ele>206.75</ele>
        <time>2014-09-13T08:09:42Z</time>
      </trkpt>
      <trkpt lat="44.42115" lon="4.92945">
        <ele>208.14</ele>
        <time>2014-09-13T08:09:49Z</time>
      </trkpt>
      <trkpt lat="44.42133" lon="4.92953">
        <ele>209.66</ele>
        <time>2014-09-13T08:09:58Z</time>
      </trkpt>
      <trkpt lat="44.4214" lon="4.92956">
        <ele>210.37</ele>
        <time>2014-09-13T08:10:01Z</time>
      </trkpt>
      <trkpt lat="44.42165" lon="4.92959">
        <ele>211.85</ele>
        <time>2014-09-13T08:10:13Z</time>
      </trkpt>
      <trkpt lat="44.42196" lon="4.92958">
        <ele>214.44</ele>
        <time>2014-09-13T08:10:26Z</time>
      </trkpt>
      <trkpt lat="44.42218" lon="4.92952">
        <ele>216.41</ele>
        <time>2014-09-13T08:10:37Z</time>
      </trkpt>
      <trkpt lat="44.4224" lon="4.92931">
        <ele>216.33</ele>
        <time>2014-09-13T08:10:49Z</time>
      </trkpt>
      <trkpt lat="44.42268" lon="4.92915">
        <ele>216.38</ele>
        <time>2014-09-13T08:10:59Z</time>
      </trkpt>
      <trkpt lat="44.42286" lon="4.9291">
        <ele>216.57</ele>
        <time>2014-09-13T08:11:05Z</time>
      </trkpt>
      <trkpt lat="44.42313" lon="4.92922">
        <ele>216.27</ele>
        <time>2014-09-13T08:11:15Z</time>
      </trkpt>
      <trkpt lat="44.42358" lon="4.92957">
        <ele>213.83</ele>
        <time>2014-09-13T08:11:28Z</time>
      </trkpt>
      <trkpt lat="44.42366" lon="4.92962">
        <ele>213.24</ele>
        <time>2014-09-13T08:11:30Z</time>
      </trkpt>
      <trkpt lat="44.42392" lon="4.92977">
        <ele>212.73</ele>
        <time>2014-09-13T08:11:36Z</time>
      </trkpt>
      <trkpt lat="44.4244" lon="4.9299">
        <ele>212.92</ele>
        <time>2014-09-13T08:11:47Z</time>
      </trkpt>
      <trkpt lat="44.42472" lon="4.93005">
        <ele>212.75</ele>
        <time>2014-09-13T08:11:54Z</time>
      </trkpt>
      <trkpt lat="44.42501" lon="4.9301">
        <ele>212.31</ele>
        <time>2014-09-13T08:12:01Z</time>
      </trkpt>
      <trkpt lat="44.42539" lon="4.93004">
        <ele>213.53</ele>
        <time>2014-09-13T08:12:11Z</time>
      </trkpt>
      <trkpt lat="44.4255" lon="4.93002">
        <ele>213.58</ele>
        <time>2014-09-13T08:12:14Z</time>
      </trkpt>
      <trkpt lat="44.42597" lon="4.9302">
        <ele>213.02</ele>
        <time>2014-09-13T08:12:27Z</time>
      </trkpt>
      <trkpt lat="44.42621" lon="4.93032">
        <ele>213.44</ele>
        <time>2014-09-13T08:12:34Z</time>
      </trkpt>
      <trkpt lat="44.4264" lon="4.93041">
        <ele>213.46</ele>
        <time>2014-09-13T08:12:39Z</time>
      </trkpt>
      <trkpt lat="44.4267" lon="4.93049">
        <ele>214.12</ele>
        <time>2014-09-13T08:12:47Z</time>
      </trkpt>
      <trkpt lat="44.42693" lon="4.93061">
        <ele>214.11</ele>
        <time>2014-09-13T08:12:54Z</time>
      </trkpt>
      <trkpt lat="44.42713" lon="4.93077">
        <ele>214.28</ele>
        <time>2014-09-13T08:13:01Z</time>
      </trkpt>
      <trkpt lat="44.42742" lon="4.93109">
        <ele>215.14</ele>
        <time>2014-09-13T08:13:10Z</time>
      </trkpt>
      <trkpt lat="44.42756" lon="4.93129">
        <ele>215.38</ele>
        <time>2014-09-13T08:13:15Z</time>
      </trkpt>
      <trkpt lat="44.42779" lon="4.93153">
        <ele>215.96</ele>
        <time>2014-09-13T08:13:22Z</time>
      </trkpt>
      <trkpt lat="44.42793" lon="4.93166">
        <ele>216.2</ele>
        <time>2014-09-13T08:13:26Z</time>
      </trkpt>
      <trkpt lat="44.42815" lon="4.93191">
        <ele>216.43</ele>
        <time>2014-09-13T08:13:33Z</time>
      </trkpt>
      <trkpt lat="44.42858" lon="4.93227">
        <ele>217.45</ele>
        <time>2014-09-13T08:13:46Z</time>
      </trkpt>
      <trkpt lat="44.42881" lon="4.93231">
        <ele>217.75</ele>
        <time>2014-09-13T08:13:53Z</time>
      </trkpt>
      <trkpt lat="44.42923" lon="4.93222">
        <ele>218.03</ele>
        <time>2014-09-13T08:14:05Z</time>
      </trkpt>
      <trkpt lat="44.42963" lon="4.93202">
        <ele>219.57</ele>
        <time>2014-09-13T08:14:17Z</time>
      </trkpt>
      <trkpt lat="44.42967" lon="4.93197">
        <ele>220.47</ele>
        <time>2014-09-13T08:14:19Z</time>
      </trkpt>
      <trkpt lat="44.42982" lon="4.93179">
        <ele>222.06</ele>
        <time>2014-09-13T08:14:27Z</time>
      </trkpt>
      <trkpt lat="44.43002" lon="4.93152">
        <ele>222.85</ele>
        <time>2014-09-13T08:14:38Z</time>
      </trkpt>
      <trkpt lat="44.43006" lon="4.9315">
        <ele>222.87</ele>
        <time>2014-09-13T08:14:40Z</time>
      </trkpt>
      <trkpt lat="44.43011" lon="4.93148">
        <ele>222.24</ele>
        <time>2014-09-13T08:14:56Z</time>
      </trkpt>
      <trkpt lat="44.43013" lon="4.93145">
        <ele>222.86</ele>
        <time>2014-09-13T08:15:35Z</time>
      </trkpt>
      <trkpt lat="44.43016" lon="4.93147">
        <ele>222.42</ele>
        <time>2014-09-13T08:15:50Z</time>
      </trkpt>
      <trkpt lat="44.43024" lon="4.93165">
        <ele>223.17</ele>
        <time>2014-09-13T08:15:57Z</time>
      </trkpt>
      <trkpt lat="44.43025" lon="4.93169">
        <ele>223.03</ele>
        <time>2014-09-13T08:15:58Z</time>
      </trkpt>
      <trkpt lat="44.43026" lon="4.93173">
        <ele>222.93</ele>
        <time>2014-09-13T08:15:59Z</time>
      </trkpt>
      <trkpt lat="44.43028" lon="4.93177">
        <ele>222.89</ele>
        <time>2014-09-13T08:16:00Z</time>
      </trkpt>
      <trkpt lat="44.4303" lon="4.9318">
        <ele>222.86</ele>
        <time>2014-09-13T08:16:01Z</time>
      </trkpt>
      <trkpt lat="44.43043" lon="4.93221">
        <ele>222.68</ele>
        <time>2014-09-13T08:16:13Z</time>
      </trkpt>
      <trkpt lat="44.43043" lon="4.93217">
        <ele>222.43</ele>
        <time>2014-09-13T08:16:23Z</time>
      </trkpt>
      <trkpt lat="44.43042" lon="4.93215">
        <ele>222.25</ele>
        <time>2014-09-13T08:16:24Z</time>
      </trkpt>
      <trkpt lat="44.43041" lon="4.93214">
        <ele>222.13</ele>
        <time>2014-09-13T08:16:25Z</time>
      </trkpt>
      <trkpt lat="44.43033" lon="4.93192">
        <ele>221.77</ele>
        <time>2014-09-13T08:16:38Z</time>
      </trkpt>
      <trkpt lat="44.43032" lon="4.9319">
        <ele>222.38</ele>
        <time>2014-09-13T08:17:00Z</time>
      </trkpt>
      <trkpt lat="44.43032" lon="4.93189">
        <ele>222.34</ele>
        <time>2014-09-13T08:17:28Z</time>
      </trkpt>
      <trkpt lat="44.43033" lon="4.93189">
        <ele>222.7</ele>
        <time>2014-09-13T08:18:14Z</time>
      </trkpt>
      <trkpt lat="44.43033" lon="4.93189">
        <ele>223.02</ele>
        <time>2014-09-13T08:18:54Z</time>
      </trkpt>
      <trkpt lat="44.43033" lon="4.93189">
        <ele>223.1</ele>
        <time>2014-09-13T08:19:48Z</time>
      </trkpt>
      <trkpt lat="44.43033" lon="4.93189">
        <ele>223.87</ele>
        <time>2014-09-13T08:20:46Z</time>
      </trkpt>
      <trkpt lat="44.43033" lon="4.93189">
        <ele>224.13</ele>
        <time>2014-09-13T08:21:33Z</time>
      </trkpt>
      <trkpt lat="44.43033" lon="4.9319">
        <ele>224.3</ele>
        <time>2014-09-13T08:22:10Z</time>
      </trkpt>
      <trkpt lat="44.43034" lon="4.93189">
        <ele>224.36</ele>
        <time>2014-09-13T08:22:57Z</time>
      </trkpt>
      <trkpt lat="44.43034" lon="4.93188">
        <ele>224.2</ele>
        <time>2014-09-13T08:23:39Z</time>
      </trkpt>
      <trkpt lat="44.43035" lon="4.93187">
        <ele>224.12</ele>
        <time>2014-09-13T08:24:20Z</time>
      </trkpt>
      <trkpt lat="44.43035" lon="4.93187">
        <ele>223.77</ele>
        <time>2014-09-13T08:24:58Z</time>
      </trkpt>
      <trkpt lat="44.43034" lon="4.93187">
        <ele>223.83</ele>
        <time>2014-09-13T08:25:56Z</time>
      </trkpt>
      <trkpt lat="44.43036" lon="4.93193">
        <ele>224.52</ele>
        <time>2014-09-13T08:26:31Z</time>
      </trkpt>
      <trkpt lat="44.43037" lon="4.93195">
        <ele>224.51</ele>
        <time>2014-09-13T08:26:32Z</time>
      </trkpt>
      <trkpt lat="44.43038" lon="4.93197">
        <ele>224.51</ele>
        <time>2014-09-13T08:26:33Z</time>
      </trkpt>
      <trkpt lat="44.43038" lon="4.93199">
        <ele>224.42</ele>
        <time>2014-09-13T08:26:34Z</time>
      </trkpt>
      <trkpt lat="44.43039" lon="4.93201">
        <ele>224.46</ele>
        <time>2014-09-13T08:26:35Z</time>
      </trkpt>
      <trkpt lat="44.43039" lon="4.93203">
        <ele>224.52</ele>
        <time>2014-09-13T08:26:36Z</time>
      </trkpt>
      <trkpt lat="44.4304" lon="4.93205">
        <ele>224.53</ele>
        <time>2014-09-13T08:26:37Z</time>
      </trkpt>
      <trkpt lat="44.43041" lon="4.9321">
        <ele>224.45</ele>
        <time>2014-09-13T08:26:39Z</time>
      </trkpt>
      <trkpt lat="44.43042" lon="4.93213">
        <ele>224.44</ele>
        <time>2014-09-13T08:26:40Z</time>
      </trkpt>
      <trkpt lat="44.43043" lon="4.93216">
        <ele>224.49</ele>
        <time>2014-09-13T08:26:41Z</time>
      </trkpt>
      <trkpt lat="44.43044" lon="4.93219">
        <ele>224.68</ele>
        <time>2014-09-13T08:26:42Z</time>
      </trkpt>
      <trkpt lat="44.43045" lon="4.93223">
        <ele>224.61</ele>
        <time>2014-09-13T08:26:43Z</time>
      </trkpt>
      <trkpt lat="44.43046" lon="4.93226">
        <ele>224.66</ele>
        <time>2014-09-13T08:26:44Z</time>
      </trkpt>
      <trkpt lat="44.43047" lon="4.9323">
        <ele>224.79</ele>
        <time>2014-09-13T08:26:45Z</time>
      </trkpt>
      <trkpt lat="44.43048" lon="4.93233">
        <ele>224.86</ele>
        <time>2014-09-13T08:26:46Z</time>
      </trkpt>
      <trkpt lat="44.43049" lon="4.93236">
        <ele>224.89</ele>
        <time>2014-09-13T08:26:47Z</time>
      </trkpt>
      <trkpt lat="44.4305" lon="4.9324">
        <ele>224.92</ele>
        <time>2014-09-13T08:26:48Z</time>
      </trkpt>
      <trkpt lat="44.43062" lon="4.93271">
        <ele>225.08</ele>
        <time>2014-09-13T08:26:59Z</time>
      </trkpt>
      <trkpt lat="44.43063" lon="4.93274">
        <ele>225.2</ele>
        <time>2014-09-13T08:27:00Z</time>
      </trkpt>
      <trkpt lat="44.43064" lon="4.93277">
        <ele>225.37</ele>
        <time>2014-09-13T08:27:01Z</time>
      </trkpt>
      <trkpt lat="44.43066" lon="4.9328">
        <ele>225.45</ele>
        <time>2014-09-13T08:27:02Z</time>
      </trkpt>
      <trkpt lat="44.43067" lon="4.93284">
        <ele>225.5</ele>
        <time>2014-09-13T08:27:03Z</time>
      </trkpt>
      <trkpt lat="44.43079" lon="4.93315">
        <ele>225.02</ele>
        <time>2014-09-13T08:27:13Z</time>
      </trkpt>
      <trkpt lat="44.4308" lon="4.93319">
        <ele>225.38</ele>
        <time>2014-09-13T08:27:14Z</time>
      </trkpt>
      <trkpt lat="44.43088" lon="4.93339">
        <ele>225.58</ele>
        <time>2014-09-13T08:27:19Z</time>
      </trkpt>
      <trkpt lat="44.43094" lon="4.93345">
        <ele>225.54</ele>
        <time>2014-09-13T08:27:21Z</time>
      </trkpt>
      <trkpt lat="44.43097" lon="4.93346">
        <ele>225.52</ele>
        <time>2014-09-13T08:27:22Z</time>
      </trkpt>
      <trkpt lat="44.43101" lon="4.93348">
        <ele>225.61</ele>
        <time>2014-09-13T08:27:23Z</time>
      </trkpt>
      <trkpt lat="44.43105" lon="4.93349">
        <ele>225.72</ele>
        <time>2014-09-13T08:27:24Z</time>
      </trkpt>
      <trkpt lat="44.43109" lon="4.93349">
        <ele>225.78</ele>
        <time>2014-09-13T08:27:25Z</time>
      </trkpt>
      <trkpt lat="44.43117" lon="4.9335">
        <ele>225.71</ele>
        <time>2014-09-13T08:27:27Z</time>
      </trkpt>
      <trkpt lat="44.43141" lon="4.93351">
        <ele>225.04</ele>
        <time>2014-09-13T08:27:33Z</time>
      </trkpt>
      <trkpt lat="44.43157" lon="4.93353">
        <ele>224.96</ele>
        <time>2014-09-13T08:27:37Z</time>
      </trkpt>
      <trkpt lat="44.43218" lon="4.93379">
        <ele>224.73</ele>
        <time>2014-09-13T08:27:52Z</time>
      </trkpt>
      <trkpt lat="44.43281" lon="4.93447">
        <ele>224.71</ele>
        <time>2014-09-13T08:28:11Z</time>
      </trkpt>
      <trkpt lat="44.43296" lon="4.93463">
        <ele>224.87</ele>
        <time>2014-09-13T08:28:16Z</time>
      </trkpt>
      <trkpt lat="44.43303" lon="4.9347">
        <ele>225.13</ele>
        <time>2014-09-13T08:28:18Z</time>
      </trkpt>
      <trkpt lat="44.43306" lon="4.93473">
        <ele>225.07</ele>
        <time>2014-09-13T08:28:19Z</time>
      </trkpt>
      <trkpt lat="44.43309" lon="4.93476">
        <ele>224.96</ele>
        <time>2014-09-13T08:28:20Z</time>
      </trkpt>
      <trkpt lat="44.43312" lon="4.93479">
        <ele>224.99</ele>
        <time>2014-09-13T08:28:21Z</time>
      </trkpt>
      <trkpt lat="44.43315" lon="4.93482">
        <ele>224.86</ele>
        <time>2014-09-13T08:28:22Z</time>
      </trkpt>
      <trkpt lat="44.43355" lon="4.93526">
        <ele>225.37</ele>
        <time>2014-09-13T08:28:35Z</time>
      </trkpt>
      <trkpt lat="44.43368" lon="4.93537">
        <ele>225.33</ele>
        <time>2014-09-13T08:28:39Z</time>
      </trkpt>
      <trkpt lat="44.43391" lon="4.93542">
        <ele>225.54</ele>
        <time>2014-09-13T08:28:47Z</time>
      </trkpt>
      <trkpt lat="44.43399" lon="4.93539">
        <ele>225.28</ele>
        <time>2014-09-13T08:29:04Z</time>
      </trkpt>
      <trkpt lat="44.43401" lon="4.9354">
        <ele>225.46</ele>
        <time>2014-09-13T08:29:31Z</time>
      </trkpt>
      <trkpt lat="44.43403" lon="4.93543">
        <ele>225.35</ele>
        <time>2014-09-13T08:30:05Z</time>
      </trkpt>
      <trkpt lat="44.43401" lon="4.93537">
        <ele>226.32</ele>
        <time>2014-09-13T08:31:26Z</time>
      </trkpt>
      <trkpt lat="44.43401" lon="4.93538">
        <ele>226.19</ele>
        <time>2014-09-13T08:32:54Z</time>
      </trkpt>
      <trkpt lat="44.43403" lon="4.9354">
        <ele>225.98</ele>
        <time>2014-09-13T08:33:18Z</time>
      </trkpt>
      <trkpt lat="44.43404" lon="4.93542">
        <ele>226.64</ele>
        <time>2014-09-13T08:33:46Z</time>
      </trkpt>
      <trkpt lat="44.43406" lon="4.93544">
        <ele>227.58</ele>
        <time>2014-09-13T08:34:35Z</time>
      </trkpt>
      <trkpt lat="44.43408" lon="4.93542">
        <ele>227.11</ele>
        <time>2014-09-13T08:35:17Z</time>
      </trkpt>
      <trkpt lat="44.43853" lon="4.9394">
        <ele>214.71</ele>
        <time>2014-09-13T08:45:29Z</time>
      </trkpt>
      <trkpt lat="44.43853" lon="4.93941">
        <ele>214.82</ele>
        <time>2014-09-13T08:45:30Z</time>
      </trkpt>
      <trkpt lat="44.43854" lon="4.93943">
        <ele>214.88</ele>
        <time>2014-09-13T08:45:44Z</time>
      </trkpt>
      <trkpt lat="44.43859" lon="4.93952">
        <ele>215.12</ele>
        <time>2014-09-13T08:45:49Z</time>
      </trkpt>
      <trkpt lat="44.43859" lon="4.93955">
        <ele>215.08</ele>
        <time>2014-09-13T08:45:50Z</time>
      </trkpt>
      <trkpt lat="44.4386" lon="4.93958">
        <ele>214.99</ele>
        <time>2014-09-13T08:45:51Z</time>
      </trkpt>
      <trkpt lat="44.43861" lon="4.93961">
        <ele>214.85</ele>
        <time>2014-09-13T08:45:52Z</time>
      </trkpt>
      <trkpt lat="44.43861" lon="4.93964">
        <ele>214.79</ele>
        <time>2014-09-13T08:45:53Z</time>
      </trkpt>
      <trkpt lat="44.43862" lon="4.93967">
        <ele>214.77</ele>
        <time>2014-09-13T08:45:54Z</time>
      </trkpt>
      <trkpt lat="44.43863" lon="4.9397">
        <ele>214.77</ele>
        <time>2014-09-13T08:45:55Z</time>
      </trkpt>
      <trkpt lat="44.43864" lon="4.93973">
        <ele>214.76</ele>
        <time>2014-09-13T08:45:56Z</time>
      </trkpt>
      <trkpt lat="44.43866" lon="4.93975">
        <ele>214.76</ele>
        <time>2014-09-13T08:45:57Z</time>
      </trkpt>
      <trkpt lat="44.43867" lon="4.93979">
        <ele>214.86</ele>
        <time>2014-09-13T08:45:58Z</time>
      </trkpt>
      <trkpt lat="44.43868" lon="4.93985">
        <ele>214.98</ele>
        <time>2014-09-13T08:46:00Z</time>
      </trkpt>
      <trkpt lat="44.43869" lon="4.93989">
        <ele>214.97</ele>
        <time>2014-09-13T08:46:01Z</time>
      </trkpt>
      <trkpt lat="44.4387" lon="4.93993">
        <ele>215</ele>
        <time>2014-09-13T08:46:02Z</time>
      </trkpt>
      <trkpt lat="44.43871" lon="4.93997">
        <ele>215.02</ele>
        <time>2014-09-13T08:46:03Z</time>
      </trkpt>
      <trkpt lat="44.43872" lon="4.94">
        <ele>215.07</ele>
        <time>2014-09-13T08:46:04Z</time>
      </trkpt>
      <trkpt lat="44.43874" lon="4.94009">
        <ele>215.13</ele>
        <time>2014-09-13T08:46:06Z</time>
      </trkpt>
      <trkpt lat="44.43875" lon="4.94013">
        <ele>215.19</ele>
        <time>2014-09-13T08:46:07Z</time>
      </trkpt>
      <trkpt lat="44.43876" lon="4.94018">
        <ele>215.28</ele>
        <time>2014-09-13T08:46:08Z</time>
      </trkpt>
      <trkpt lat="44.43879" lon="4.94026">
        <ele>215.53</ele>
        <time>2014-09-13T08:46:10Z</time>
      </trkpt>
      <trkpt lat="44.4388" lon="4.94031">
        <ele>215.59</ele>
        <time>2014-09-13T08:46:11Z</time>
      </trkpt>
      <trkpt lat="44.439" lon="4.94114">
        <ele>215.7</ele>
        <time>2014-09-13T08:46:27Z</time>
      </trkpt>
      <trkpt lat="44.43927" lon="4.94239">
        <ele>216.14</ele>
        <time>2014-09-13T08:46:48Z</time>
      </trkpt>
      <trkpt lat="44.43948" lon="4.94317">
        <ele>215.43</ele>
        <time>2014-09-13T08:47:03Z</time>
      </trkpt>
      <trkpt lat="44.43951" lon="4.94319">
        <ele>215.45</ele>
        <time>2014-09-13T08:47:04Z</time>
      </trkpt>
      <trkpt lat="44.43958" lon="4.94318">
        <ele>215.41</ele>
        <time>2014-09-13T08:47:06Z</time>
      </trkpt>
      <trkpt lat="44.4399" lon="4.9432">
        <ele>216.65</ele>
        <time>2014-09-13T08:47:19Z</time>
      </trkpt>
      <trkpt lat="44.43996" lon="4.9432">
        <ele>217.19</ele>
        <time>2014-09-13T08:47:22Z</time>
      </trkpt>
      <trkpt lat="44.44003" lon="4.94321">
        <ele>217.76</ele>
        <time>2014-09-13T08:47:25Z</time>
      </trkpt>
      <trkpt lat="44.44013" lon="4.94323">
        <ele>217.87</ele>
        <time>2014-09-13T08:47:29Z</time>
      </trkpt>
      <trkpt lat="44.44025" lon="4.94323">
        <ele>218.36</ele>
        <time>2014-09-13T08:47:35Z</time>
      </trkpt>
      <trkpt lat="44.44045" lon="4.94329">
        <ele>220.42</ele>
        <time>2014-09-13T08:47:43Z</time>
      </trkpt>
      <trkpt lat="44.44051" lon="4.9433">
        <ele>220.79</ele>
        <time>2014-09-13T08:47:46Z</time>
      </trkpt>
      <trkpt lat="44.44081" lon="4.94338">
        <ele>222.63</ele>
        <time>2014-09-13T08:47:58Z</time>
      </trkpt>
      <trkpt lat="44.44095" lon="4.94339">
        <ele>223.4</ele>
        <time>2014-09-13T08:48:04Z</time>
      </trkpt>
      <trkpt lat="44.44104" lon="4.94343">
        <ele>224.2</ele>
        <time>2014-09-13T08:48:08Z</time>
      </trkpt>
      <trkpt lat="44.44112" lon="4.94353">
        <ele>224.47</ele>
        <time>2014-09-13T08:48:13Z</time>
      </trkpt>
      <trkpt lat="44.44122" lon="4.94363">
        <ele>223.97</ele>
        <time>2014-09-13T08:48:19Z</time>
      </trkpt>
      <trkpt lat="44.44141" lon="4.94383">
        <ele>224.96</ele>
        <time>2014-09-13T08:48:33Z</time>
      </trkpt>
      <trkpt lat="44.44155" lon="4.94393">
        <ele>225.47</ele>
        <time>2014-09-13T08:48:43Z</time>
      </trkpt>
      <trkpt lat="44.44162" lon="4.94396">
        <ele>225.97</ele>
        <time>2014-09-13T08:48:48Z</time>
      </trkpt>
      <trkpt lat="44.44174" lon="4.94403">
        <ele>227.36</ele>
        <time>2014-09-13T08:48:55Z</time>
      </trkpt>
      <trkpt lat="44.44184" lon="4.944">
        <ele>228.12</ele>
        <time>2014-09-13T08:48:59Z</time>
      </trkpt>
      <trkpt lat="44.44187" lon="4.94399">
        <ele>228.14</ele>
        <time>2014-09-13T08:49:00Z</time>
      </trkpt>
      <trkpt lat="44.4419" lon="4.94399">
        <ele>228.16</ele>
        <time>2014-09-13T08:49:01Z</time>
      </trkpt>
      <trkpt lat="44.44193" lon="4.94399">
        <ele>228.17</ele>
        <time>2014-09-13T08:49:02Z</time>
      </trkpt>
      <trkpt lat="44.44196" lon="4.94398">
        <ele>228.25</ele>
        <time>2014-09-13T08:49:03Z</time>
      </trkpt>
      <trkpt lat="44.44199" lon="4.94398">
        <ele>228.56</ele>
        <time>2014-09-13T08:49:04Z</time>
      </trkpt>
      <trkpt lat="44.44201" lon="4.94397">
        <ele>229</ele>
        <time>2014-09-13T08:49:05Z</time>
      </trkpt>
      <trkpt lat="44.44203" lon="4.94397">
        <ele>229.28</ele>
        <time>2014-09-13T08:49:06Z</time>
      </trkpt>
      <trkpt lat="44.44205" lon="4.94397">
        <ele>229.51</ele>
        <time>2014-09-13T08:49:07Z</time>
      </trkpt>
      <trkpt lat="44.44207" lon="4.94397">
        <ele>229.66</ele>
        <time>2014-09-13T08:49:08Z</time>
      </trkpt>
      <trkpt lat="44.44209" lon="4.94397">
        <ele>229.71</ele>
        <time>2014-09-13T08:49:09Z</time>
      </trkpt>
      <trkpt lat="44.4421" lon="4.94398">
        <ele>229.71</ele>
        <time>2014-09-13T08:49:10Z</time>
      </trkpt>
      <trkpt lat="44.44211" lon="4.94399">
        <ele>229.76</ele>
        <time>2014-09-13T08:49:11Z</time>
      </trkpt>
      <trkpt lat="44.44212" lon="4.94401">
        <ele>229.8</ele>
        <time>2014-09-13T08:49:12Z</time>
      </trkpt>
      <trkpt lat="44.44216" lon="4.94403">
        <ele>229.95</ele>
        <time>2014-09-13T08:49:14Z</time>
      </trkpt>
      <trkpt lat="44.44219" lon="4.94405">
        <ele>230.22</ele>
        <time>2014-09-13T08:49:16Z</time>
      </trkpt>
      <trkpt lat="44.4422" lon="4.94406">
        <ele>230.44</ele>
        <time>2014-09-13T08:49:17Z</time>
      </trkpt>
      <trkpt lat="44.44222" lon="4.94408">
        <ele>230.58</ele>
        <time>2014-09-13T08:49:18Z</time>
      </trkpt>
      <trkpt lat="44.44228" lon="4.94409">
        <ele>231.12</ele>
        <time>2014-09-13T08:49:25Z</time>
      </trkpt>
      <trkpt lat="44.4423" lon="4.94409">
        <ele>231.09</ele>
        <time>2014-09-13T08:49:26Z</time>
      </trkpt>
      <trkpt lat="44.44232" lon="4.94409">
        <ele>231.04</ele>
        <time>2014-09-13T08:49:27Z</time>
      </trkpt>
      <trkpt lat="44.44234" lon="4.9441">
        <ele>231.06</ele>
        <time>2014-09-13T08:49:28Z</time>
      </trkpt>
      <trkpt lat="44.44236" lon="4.94411">
        <ele>231.13</ele>
        <time>2014-09-13T08:49:29Z</time>
      </trkpt>
      <trkpt lat="44.44237" lon="4.94413">
        <ele>231.24</ele>
        <time>2014-09-13T08:49:30Z</time>
      </trkpt>
      <trkpt lat="44.44239" lon="4.94414">
        <ele>231.39</ele>
        <time>2014-09-13T08:49:31Z</time>
      </trkpt>
      <trkpt lat="44.44241" lon="4.94416">
        <ele>231.46</ele>
        <time>2014-09-13T08:49:32Z</time>
      </trkpt>
      <trkpt lat="44.44242" lon="4.94417">
        <ele>231.47</ele>
        <time>2014-09-13T08:49:33Z</time>
      </trkpt>
      <trkpt lat="44.44243" lon="4.94419">
        <ele>231.57</ele>
        <time>2014-09-13T08:49:34Z</time>
      </trkpt>
      <trkpt lat="44.44245" lon="4.94421">
        <ele>231.89</ele>
        <time>2014-09-13T08:49:36Z</time>
      </trkpt>
      <trkpt lat="44.44246" lon="4.94423">
        <ele>231.98</ele>
        <time>2014-09-13T08:49:37Z</time>
      </trkpt>
      <trkpt lat="44.44247" lon="4.94424">
        <ele>232.03</ele>
        <time>2014-09-13T08:49:38Z</time>
      </trkpt>
      <trkpt lat="44.44249" lon="4.94426">
        <ele>232.18</ele>
        <time>2014-09-13T08:49:39Z</time>
      </trkpt>
      <trkpt lat="44.4425" lon="4.94427">
        <ele>232.26</ele>
        <time>2014-09-13T08:49:40Z</time>
      </trkpt>
      <trkpt lat="44.44252" lon="4.94428">
        <ele>232.43</ele>
        <time>2014-09-13T08:49:41Z</time>
      </trkpt>
      <trkpt lat="44.44253" lon="4.9443">
        <ele>232.43</ele>
        <time>2014-09-13T08:49:42Z</time>
      </trkpt>
      <trkpt lat="44.44254" lon="4.94431">
        <ele>232.61</ele>
        <time>2014-09-13T08:49:43Z</time>
      </trkpt>
      <trkpt lat="44.44255" lon="4.94432">
        <ele>232.77</ele>
        <time>2014-09-13T08:49:44Z</time>
      </trkpt>
      <trkpt lat="44.44256" lon="4.94432">
        <ele>232.92</ele>
        <time>2014-09-13T08:49:45Z</time>
      </trkpt>
      <trkpt lat="44.44257" lon="4.94434">
        <ele>233.02</ele>
        <time>2014-09-13T08:49:46Z</time>
      </trkpt>
      <trkpt lat="44.44263" lon="4.94444">
        <ele>232.95</ele>
        <time>2014-09-13T08:49:51Z</time>
      </trkpt>
      <trkpt lat="44.44264" lon="4.94446">
        <ele>232.81</ele>
        <time>2014-09-13T08:49:52Z</time>
      </trkpt>
      <trkpt lat="44.44269" lon="4.94454">
        <ele>232.83</ele>
        <time>2014-09-13T08:49:55Z</time>
      </trkpt>
      <trkpt lat="44.44283" lon="4.9448">
        <ele>233.96</ele>
        <time>2014-09-13T08:50:05Z</time>
      </trkpt>
      <trkpt lat="44.44285" lon="4.94482">
        <ele>234.1</ele>
        <time>2014-09-13T08:50:06Z</time>
      </trkpt>
      <trkpt lat="44.44287" lon="4.94483">
        <ele>234.17</ele>
        <time>2014-09-13T08:50:07Z</time>
      </trkpt>
      <trkpt lat="44.44288" lon="4.94485">
        <ele>234.18</ele>
        <time>2014-09-13T08:50:08Z</time>
      </trkpt>
      <trkpt lat="44.44289" lon="4.94487">
        <ele>234.05</ele>
        <time>2014-09-13T08:50:09Z</time>
      </trkpt>
      <trkpt lat="44.44291" lon="4.94489">
        <ele>234.11</ele>
        <time>2014-09-13T08:50:10Z</time>
      </trkpt>
      <trkpt lat="44.44292" lon="4.9449">
        <ele>234.24</ele>
        <time>2014-09-13T08:50:11Z</time>
      </trkpt>
      <trkpt lat="44.44294" lon="4.94493">
        <ele>234.34</ele>
        <time>2014-09-13T08:50:12Z</time>
      </trkpt>
      <trkpt lat="44.44295" lon="4.94495">
        <ele>234.42</ele>
        <time>2014-09-13T08:50:13Z</time>
      </trkpt>
      <trkpt lat="44.44298" lon="4.94502">
        <ele>234.55</ele>
        <time>2014-09-13T08:50:16Z</time>
      </trkpt>
      <trkpt lat="44.44299" lon="4.94507">
        <ele>234.72</ele>
        <time>2014-09-13T08:50:18Z</time>
      </trkpt>
      <trkpt lat="44.443" lon="4.9451">
        <ele>234.83</ele>
        <time>2014-09-13T08:50:19Z</time>
      </trkpt>
      <trkpt lat="44.44301" lon="4.94512">
        <ele>234.92</ele>
        <time>2014-09-13T08:50:20Z</time>
      </trkpt>
      <trkpt lat="44.44303" lon="4.94513">
        <ele>234.97</ele>
        <time>2014-09-13T08:50:21Z</time>
      </trkpt>
      <trkpt lat="44.44304" lon="4.94515">
        <ele>234.99</ele>
        <time>2014-09-13T08:50:22Z</time>
      </trkpt>
      <trkpt lat="44.44306" lon="4.94518">
        <ele>234.94</ele>
        <time>2014-09-13T08:50:23Z</time>
      </trkpt>
      <trkpt lat="44.44306" lon="4.9452">
        <ele>234.92</ele>
        <time>2014-09-13T08:50:24Z</time>
      </trkpt>
      <trkpt lat="44.44306" lon="4.94523">
        <ele>234.85</ele>
        <time>2014-09-13T08:50:25Z</time>
      </trkpt>
      <trkpt lat="44.44307" lon="4.94525">
        <ele>234.75</ele>
        <time>2014-09-13T08:50:26Z</time>
      </trkpt>
      <trkpt lat="44.44309" lon="4.94528">
        <ele>234.63</ele>
        <time>2014-09-13T08:50:27Z</time>
      </trkpt>
      <trkpt lat="44.4431" lon="4.9453">
        <ele>234.64</ele>
        <time>2014-09-13T08:50:28Z</time>
      </trkpt>
      <trkpt lat="44.44312" lon="4.94533">
        <ele>234.59</ele>
        <time>2014-09-13T08:50:29Z</time>
      </trkpt>
      <trkpt lat="44.44313" lon="4.94535">
        <ele>234.56</ele>
        <time>2014-09-13T08:50:30Z</time>
      </trkpt>
      <trkpt lat="44.44316" lon="4.9454">
        <ele>234.62</ele>
        <time>2014-09-13T08:50:32Z</time>
      </trkpt>
      <trkpt lat="44.44317" lon="4.94543">
        <ele>234.68</ele>
        <time>2014-09-13T08:50:33Z</time>
      </trkpt>
      <trkpt lat="44.44319" lon="4.94546">
        <ele>234.75</ele>
        <time>2014-09-13T08:50:34Z</time>
      </trkpt>
      <trkpt lat="44.4432" lon="4.94548">
        <ele>234.87</ele>
        <time>2014-09-13T08:50:35Z</time>
      </trkpt>
      <trkpt lat="44.44322" lon="4.94551">
        <ele>235.01</ele>
        <time>2014-09-13T08:50:36Z</time>
      </trkpt>
      <trkpt lat="44.44323" lon="4.94553">
        <ele>235.13</ele>
        <time>2014-09-13T08:50:37Z</time>
      </trkpt>
      <trkpt lat="44.44325" lon="4.94555">
        <ele>235.26</ele>
        <time>2014-09-13T08:50:38Z</time>
      </trkpt>
      <trkpt lat="44.44328" lon="4.9456">
        <ele>235.46</ele>
        <time>2014-09-13T08:50:40Z</time>
      </trkpt>
      <trkpt lat="44.44333" lon="4.94568">
        <ele>235.93</ele>
        <time>2014-09-13T08:50:43Z</time>
      </trkpt>
      <trkpt lat="44.44335" lon="4.94573">
        <ele>235.96</ele>
        <time>2014-09-13T08:50:45Z</time>
      </trkpt>
      <trkpt lat="44.44337" lon="4.94576">
        <ele>236.01</ele>
        <time>2014-09-13T08:50:46Z</time>
      </trkpt>
      <trkpt lat="44.44337" lon="4.94579">
        <ele>236.01</ele>
        <time>2014-09-13T08:50:47Z</time>
      </trkpt>
      <trkpt lat="44.44338" lon="4.94582">
        <ele>236.11</ele>
        <time>2014-09-13T08:50:48Z</time>
      </trkpt>
      <trkpt lat="44.44339" lon="4.94584">
        <ele>236.15</ele>
        <time>2014-09-13T08:50:49Z</time>
      </trkpt>
      <trkpt lat="44.44339" lon="4.94587">
        <ele>236.21</ele>
        <time>2014-09-13T08:50:50Z</time>
      </trkpt>
      <trkpt lat="44.4434" lon="4.94589">
        <ele>236.28</ele>
        <time>2014-09-13T08:50:51Z</time>
      </trkpt>
      <trkpt lat="44.44341" lon="4.94592">
        <ele>236.41</ele>
        <time>2014-09-13T08:50:52Z</time>
      </trkpt>
      <trkpt lat="44.44342" lon="4.94594">
        <ele>236.51</ele>
        <time>2014-09-13T08:50:53Z</time>
      </trkpt>
      <trkpt lat="44.44343" lon="4.94596">
        <ele>236.57</ele>
        <time>2014-09-13T08:50:54Z</time>
      </trkpt>
      <trkpt lat="44.44344" lon="4.94599">
        <ele>236.52</ele>
        <time>2014-09-13T08:50:55Z</time>
      </trkpt>
      <trkpt lat="44.44351" lon="4.94616">
        <ele>236.85</ele>
        <time>2014-09-13T08:51:02Z</time>
      </trkpt>
      <trkpt lat="44.44353" lon="4.94619">
        <ele>237.01</ele>
        <time>2014-09-13T08:51:03Z</time>
      </trkpt>
      <trkpt lat="44.44354" lon="4.94622">
        <ele>237.1</ele>
        <time>2014-09-13T08:51:04Z</time>
      </trkpt>
      <trkpt lat="44.44356" lon="4.94625">
        <ele>237.14</ele>
        <time>2014-09-13T08:51:05Z</time>
      </trkpt>
      <trkpt lat="44.44357" lon="4.94628">
        <ele>237.3</ele>
        <time>2014-09-13T08:51:06Z</time>
      </trkpt>
      <trkpt lat="44.44359" lon="4.94631">
        <ele>237.54</ele>
        <time>2014-09-13T08:51:07Z</time>
      </trkpt>
      <trkpt lat="44.4436" lon="4.94633">
        <ele>237.53</ele>
        <time>2014-09-13T08:51:08Z</time>
      </trkpt>
      <trkpt lat="44.44377" lon="4.94679">
        <ele>239.08</ele>
        <time>2014-09-13T08:51:23Z</time>
      </trkpt>
      <trkpt lat="44.44382" lon="4.94697">
        <ele>239.24</ele>
        <time>2014-09-13T08:51:29Z</time>
      </trkpt>
      <trkpt lat="44.44388" lon="4.94715">
        <ele>239.36</ele>
        <time>2014-09-13T08:51:35Z</time>
      </trkpt>
      <trkpt lat="44.44402" lon="4.94742">
        <ele>239.93</ele>
        <time>2014-09-13T08:51:46Z</time>
      </trkpt>
      <trkpt lat="44.44409" lon="4.94755">
        <ele>240.33</ele>
        <time>2014-09-13T08:51:51Z</time>
      </trkpt>
      <trkpt lat="44.44418" lon="4.9479">
        <ele>241.23</ele>
        <time>2014-09-13T08:52:03Z</time>
      </trkpt>
      <trkpt lat="44.44427" lon="4.94822">
        <ele>241.85</ele>
        <time>2014-09-13T08:52:12Z</time>
      </trkpt>
      <trkpt lat="44.44439" lon="4.94843">
        <ele>242.8</ele>
        <time>2014-09-13T08:52:20Z</time>
      </trkpt>
      <trkpt lat="44.44442" lon="4.94857">
        <ele>243.22</ele>
        <time>2014-09-13T08:52:24Z</time>
      </trkpt>
      <trkpt lat="44.44454" lon="4.94885">
        <ele>244.27</ele>
        <time>2014-09-13T08:52:33Z</time>
      </trkpt>
      <trkpt lat="44.44458" lon="4.94889">
        <ele>244.55</ele>
        <time>2014-09-13T08:52:35Z</time>
      </trkpt>
      <trkpt lat="44.44468" lon="4.94909">
        <ele>246</ele>
        <time>2014-09-13T08:52:43Z</time>
      </trkpt>
      <trkpt lat="44.44474" lon="4.94933">
        <ele>246.48</ele>
        <time>2014-09-13T08:52:51Z</time>
      </trkpt>
      <trkpt lat="44.44483" lon="4.94967">
        <ele>246.24</ele>
        <time>2014-09-13T08:53:02Z</time>
      </trkpt>
      <trkpt lat="44.44487" lon="4.94979">
        <ele>246.08</ele>
        <time>2014-09-13T08:53:06Z</time>
      </trkpt>
      <trkpt lat="44.44491" lon="4.95013">
        <ele>246.14</ele>
        <time>2014-09-13T08:53:17Z</time>
      </trkpt>
      <trkpt lat="44.44494" lon="4.9503">
        <ele>246.43</ele>
        <time>2014-09-13T08:53:22Z</time>
      </trkpt>
      <trkpt lat="44.44499" lon="4.95043">
        <ele>246.78</ele>
        <time>2014-09-13T08:53:26Z</time>
      </trkpt>
      <trkpt lat="44.44503" lon="4.95052">
        <ele>246.9</ele>
        <time>2014-09-13T08:53:29Z</time>
      </trkpt>
      <trkpt lat="44.44505" lon="4.95067">
        <ele>247.21</ele>
        <time>2014-09-13T08:53:33Z</time>
      </trkpt>
      <trkpt lat="44.44515" lon="4.95121">
        <ele>247.74</ele>
        <time>2014-09-13T08:53:47Z</time>
      </trkpt>
      <trkpt lat="44.44531" lon="4.95184">
        <ele>248.16</ele>
        <time>2014-09-13T08:54:04Z</time>
      </trkpt>
      <trkpt lat="44.44541" lon="4.95209">
        <ele>248.14</ele>
        <time>2014-09-13T08:54:11Z</time>
      </trkpt>
      <trkpt lat="44.44544" lon="4.95223">
        <ele>248.27</ele>
        <time>2014-09-13T08:54:15Z</time>
      </trkpt>
      <trkpt lat="44.44548" lon="4.95239">
        <ele>249.54</ele>
        <time>2014-09-13T08:54:19Z</time>
      </trkpt>
      <trkpt lat="44.44549" lon="4.95255">
        <ele>249.74</ele>
        <time>2014-09-13T08:54:23Z</time>
      </trkpt>
      <trkpt lat="44.4455" lon="4.95275">
        <ele>249.92</ele>
        <time>2014-09-13T08:54:28Z</time>
      </trkpt>
      <trkpt lat="44.44546" lon="4.95291">
        <ele>250.03</ele>
        <time>2014-09-13T08:54:32Z</time>
      </trkpt>
      <trkpt lat="44.44541" lon="4.95309">
        <ele>249.32</ele>
        <time>2014-09-13T08:54:38Z</time>
      </trkpt>
      <trkpt lat="44.44539" lon="4.95326">
        <ele>248.39</ele>
        <time>2014-09-13T08:54:43Z</time>
      </trkpt>
      <trkpt lat="44.44542" lon="4.95333">
        <ele>248.34</ele>
        <time>2014-09-13T08:54:45Z</time>
      </trkpt>
      <trkpt lat="44.44544" lon="4.95362">
        <ele>248.03</ele>
        <time>2014-09-13T08:54:53Z</time>
      </trkpt>
      <trkpt lat="44.44551" lon="4.95399">
        <ele>248.46</ele>
        <time>2014-09-13T08:55:02Z</time>
      </trkpt>
      <trkpt lat="44.44568" lon="4.95444">
        <ele>248.58</ele>
        <time>2014-09-13T08:55:14Z</time>
      </trkpt>
      <trkpt lat="44.44578" lon="4.95469">
        <ele>249.72</ele>
        <time>2014-09-13T08:55:21Z</time>
      </trkpt>
      <trkpt lat="44.44583" lon="4.95496">
        <ele>250.65</ele>
        <time>2014-09-13T08:55:28Z</time>
      </trkpt>
      <trkpt lat="44.44586" lon="4.95507">
        <ele>251.03</ele>
        <time>2014-09-13T08:55:31Z</time>
      </trkpt>
      <trkpt lat="44.44602" lon="4.95546">
        <ele>252.11</ele>
        <time>2014-09-13T08:55:45Z</time>
      </trkpt>
      <trkpt lat="44.44616" lon="4.95581">
        <ele>252.43</ele>
        <time>2014-09-13T08:55:56Z</time>
      </trkpt>
      <trkpt lat="44.44619" lon="4.9559">
        <ele>252.43</ele>
        <time>2014-09-13T08:55:59Z</time>
      </trkpt>
      <trkpt lat="44.44616" lon="4.95624">
        <ele>251.98</ele>
        <time>2014-09-13T08:56:09Z</time>
      </trkpt>
      <trkpt lat="44.44614" lon="4.95632">
        <ele>251.82</ele>
        <time>2014-09-13T08:56:11Z</time>
      </trkpt>
      <trkpt lat="44.44613" lon="4.95635">
        <ele>251.82</ele>
        <time>2014-09-13T08:56:12Z</time>
      </trkpt>
      <trkpt lat="44.44613" lon="4.95639">
        <ele>251.74</ele>
        <time>2014-09-13T08:56:13Z</time>
      </trkpt>
      <trkpt lat="44.44613" lon="4.95647">
        <ele>251.69</ele>
        <time>2014-09-13T08:56:15Z</time>
      </trkpt>
      <trkpt lat="44.44613" lon="4.9565">
        <ele>251.65</ele>
        <time>2014-09-13T08:56:16Z</time>
      </trkpt>
      <trkpt lat="44.44614" lon="4.95654">
        <ele>251.48</ele>
        <time>2014-09-13T08:56:17Z</time>
      </trkpt>
      <trkpt lat="44.44614" lon="4.95657">
        <ele>251.38</ele>
        <time>2014-09-13T08:56:18Z</time>
      </trkpt>
      <trkpt lat="44.44615" lon="4.95661">
        <ele>251.34</ele>
        <time>2014-09-13T08:56:19Z</time>
      </trkpt>
      <trkpt lat="44.44615" lon="4.95665">
        <ele>251.3</ele>
        <time>2014-09-13T08:56:20Z</time>
      </trkpt>
      <trkpt lat="44.44614" lon="4.95669">
        <ele>251.1</ele>
        <time>2014-09-13T08:56:21Z</time>
      </trkpt>
      <trkpt lat="44.44614" lon="4.95673">
        <ele>251.17</ele>
        <time>2014-09-13T08:56:22Z</time>
      </trkpt>
      <trkpt lat="44.44614" lon="4.95677">
        <ele>251.01</ele>
        <time>2014-09-13T08:56:23Z</time>
      </trkpt>
      <trkpt lat="44.44613" lon="4.95681">
        <ele>251.03</ele>
        <time>2014-09-13T08:56:24Z</time>
      </trkpt>
      <trkpt lat="44.44613" lon="4.95688">
        <ele>250.9</ele>
        <time>2014-09-13T08:56:26Z</time>
      </trkpt>
      <trkpt lat="44.44613" lon="4.95691">
        <ele>250.93</ele>
        <time>2014-09-13T08:56:27Z</time>
      </trkpt>
      <trkpt lat="44.44614" lon="4.95693">
        <ele>250.98</ele>
        <time>2014-09-13T08:56:28Z</time>
      </trkpt>
      <trkpt lat="44.44616" lon="4.95695">
        <ele>250.84</ele>
        <time>2014-09-13T08:56:29Z</time>
      </trkpt>
      <trkpt lat="44.44618" lon="4.95699">
        <ele>250.65</ele>
        <time>2014-09-13T08:56:43Z</time>
      </trkpt>
      <trkpt lat="44.44619" lon="4.95705">
        <ele>251</ele>
        <time>2014-09-13T08:57:06Z</time>
      </trkpt>
      <trkpt lat="44.44619" lon="4.95707">
        <ele>251.03</ele>
        <time>2014-09-13T08:57:07Z</time>
      </trkpt>
      <trkpt lat="44.44619" lon="4.95709">
        <ele>251.1</ele>
        <time>2014-09-13T08:57:08Z</time>
      </trkpt>
      <trkpt lat="44.44618" lon="4.95712">
        <ele>251.21</ele>
        <time>2014-09-13T08:57:09Z</time>
      </trkpt>
      <trkpt lat="44.44617" lon="4.95714">
        <ele>251.19</ele>
        <time>2014-09-13T08:57:10Z</time>
      </trkpt>
      <trkpt lat="44.44616" lon="4.95717">
        <ele>251.19</ele>
        <time>2014-09-13T08:57:11Z</time>
      </trkpt>
      <trkpt lat="44.44615" lon="4.9572">
        <ele>251.12</ele>
        <time>2014-09-13T08:57:12Z</time>
      </trkpt>
      <trkpt lat="44.44615" lon="4.95724">
        <ele>251.08</ele>
        <time>2014-09-13T08:57:13Z</time>
      </trkpt>
      <trkpt lat="44.44613" lon="4.9573">
        <ele>251.03</ele>
        <time>2014-09-13T08:57:15Z</time>
      </trkpt>
      <trkpt lat="44.44608" lon="4.95749">
        <ele>250.64</ele>
        <time>2014-09-13T08:57:20Z</time>
      </trkpt>
      <trkpt lat="44.44607" lon="4.95753">
        <ele>250.53</ele>
        <time>2014-09-13T08:57:21Z</time>
      </trkpt>
      <trkpt lat="44.44607" lon="4.95757">
        <ele>250.51</ele>
        <time>2014-09-13T08:57:22Z</time>
      </trkpt>
      <trkpt lat="44.44606" lon="4.95762">
        <ele>250.48</ele>
        <time>2014-09-13T08:57:23Z</time>
      </trkpt>
      <trkpt lat="44.44605" lon="4.95766">
        <ele>250.46</ele>
        <time>2014-09-13T08:57:24Z</time>
      </trkpt>
      <trkpt lat="44.44604" lon="4.9577">
        <ele>250.45</ele>
        <time>2014-09-13T08:57:25Z</time>
      </trkpt>
      <trkpt lat="44.44604" lon="4.95774">
        <ele>250.45</ele>
        <time>2014-09-13T08:57:26Z</time>
      </trkpt>
      <trkpt lat="44.44604" lon="4.95777">
        <ele>250.38</ele>
        <time>2014-09-13T08:57:27Z</time>
      </trkpt>
      <trkpt lat="44.44604" lon="4.9578">
        <ele>250.32</ele>
        <time>2014-09-13T08:57:28Z</time>
      </trkpt>
      <trkpt lat="44.44605" lon="4.95783">
        <ele>250.2</ele>
        <time>2014-09-13T08:57:29Z</time>
      </trkpt>
      <trkpt lat="44.44606" lon="4.95785">
        <ele>250.23</ele>
        <time>2014-09-13T08:57:30Z</time>
      </trkpt>
      <trkpt lat="44.44607" lon="4.95786">
        <ele>250.15</ele>
        <time>2014-09-13T08:57:31Z</time>
      </trkpt>
      <trkpt lat="44.44614" lon="4.95785">
        <ele>250.04</ele>
        <time>2014-09-13T08:57:35Z</time>
      </trkpt>
      <trkpt lat="44.4462" lon="4.95781">
        <ele>250.03</ele>
        <time>2014-09-13T08:57:39Z</time>
      </trkpt>
      <trkpt lat="44.44641" lon="4.95782">
        <ele>251.91</ele>
        <time>2014-09-13T08:57:50Z</time>
      </trkpt>
      <trkpt lat="44.44647" lon="4.95785">
        <ele>252.09</ele>
        <time>2014-09-13T08:57:53Z</time>
      </trkpt>
      <trkpt lat="44.44662" lon="4.95792">
        <ele>253.78</ele>
        <time>2014-09-13T08:58:01Z</time>
      </trkpt>
      <trkpt lat="44.44673" lon="4.95794">
        <ele>254.57</ele>
        <time>2014-09-13T08:58:06Z</time>
      </trkpt>
      <trkpt lat="44.44686" lon="4.95796">
        <ele>255.15</ele>
        <time>2014-09-13T08:58:12Z</time>
      </trkpt>
      <trkpt lat="44.44706" lon="4.95786">
        <ele>256.56</ele>
        <time>2014-09-13T08:58:21Z</time>
      </trkpt>
      <trkpt lat="44.44711" lon="4.95782">
        <ele>256.84</ele>
        <time>2014-09-13T08:58:24Z</time>
      </trkpt>
      <trkpt lat="44.44737" lon="4.95767">
        <ele>258.95</ele>
        <time>2014-09-13T08:58:40Z</time>
      </trkpt>
      <trkpt lat="44.44758" lon="4.9579">
        <ele>260.71</ele>
        <time>2014-09-13T08:58:54Z</time>
      </trkpt>
      <trkpt lat="44.4476" lon="4.95796">
        <ele>260.8</ele>
        <time>2014-09-13T08:58:56Z</time>
      </trkpt>
      <trkpt lat="44.44748" lon="4.95821">
        <ele>260.13</ele>
        <time>2014-09-13T08:59:07Z</time>
      </trkpt>
      <trkpt lat="44.44748" lon="4.95825">
        <ele>259.57</ele>
        <time>2014-09-13T08:59:16Z</time>
      </trkpt>
      <trkpt lat="44.44762" lon="4.95846">
        <ele>260.28</ele>
        <time>2014-09-13T08:59:28Z</time>
      </trkpt>
      <trkpt lat="44.44774" lon="4.95866">
        <ele>261.27</ele>
        <time>2014-09-13T08:59:37Z</time>
      </trkpt>
      <trkpt lat="44.44781" lon="4.9588">
        <ele>261.54</ele>
        <time>2014-09-13T08:59:42Z</time>
      </trkpt>
      <trkpt lat="44.44789" lon="4.95894">
        <ele>261.3</ele>
        <time>2014-09-13T08:59:47Z</time>
      </trkpt>
      <trkpt lat="44.44802" lon="4.95911">
        <ele>262.41</ele>
        <time>2014-09-13T08:59:55Z</time>
      </trkpt>
      <trkpt lat="44.44805" lon="4.95915">
        <ele>262.53</ele>
        <time>2014-09-13T08:59:57Z</time>
      </trkpt>
      <trkpt lat="44.44819" lon="4.95944">
        <ele>262.92</ele>
        <time>2014-09-13T09:00:10Z</time>
      </trkpt>
      <trkpt lat="44.44829" lon="4.95955">
        <ele>263.19</ele>
        <time>2014-09-13T09:00:16Z</time>
      </trkpt>
      <trkpt lat="44.44842" lon="4.95976">
        <ele>263.31</ele>
        <time>2014-09-13T09:00:24Z</time>
      </trkpt>
      <trkpt lat="44.44846" lon="4.95986">
        <ele>263.4</ele>
        <time>2014-09-13T09:00:27Z</time>
      </trkpt>
      <trkpt lat="44.44851" lon="4.95992">
        <ele>263.43</ele>
        <time>2014-09-13T09:00:30Z</time>
      </trkpt>
      <trkpt lat="44.44863" lon="4.96">
        <ele>263.63</ele>
        <time>2014-09-13T09:00:36Z</time>
      </trkpt>
      <trkpt lat="44.44868" lon="4.96006">
        <ele>264.17</ele>
        <time>2014-09-13T09:00:39Z</time>
      </trkpt>
      <trkpt lat="44.4489" lon="4.96037">
        <ele>265.48</ele>
        <time>2014-09-13T09:00:54Z</time>
      </trkpt>
      <trkpt lat="44.44897" lon="4.96064">
        <ele>266.28</ele>
        <time>2014-09-13T09:01:02Z</time>
      </trkpt>
      <trkpt lat="44.449" lon="4.96075">
        <ele>266.26</ele>
        <time>2014-09-13T09:01:05Z</time>
      </trkpt>
      <trkpt lat="44.44919" lon="4.96108">
        <ele>266.91</ele>
        <time>2014-09-13T09:01:17Z</time>
      </trkpt>
      <trkpt lat="44.4493" lon="4.96134">
        <ele>267.86</ele>
        <time>2014-09-13T09:01:27Z</time>
      </trkpt>
      <trkpt lat="44.44931" lon="4.96148">
        <ele>268.5</ele>
        <time>2014-09-13T09:01:33Z</time>
      </trkpt>
      <trkpt lat="44.4493" lon="4.96159">
        <ele>268.58</ele>
        <time>2014-09-13T09:01:37Z</time>
      </trkpt>
      <trkpt lat="44.44928" lon="4.9618">
        <ele>268.5</ele>
        <time>2014-09-13T09:01:44Z</time>
      </trkpt>
      <trkpt lat="44.44929" lon="4.96189">
        <ele>268.39</ele>
        <time>2014-09-13T09:01:47Z</time>
      </trkpt>
      <trkpt lat="44.44929" lon="4.96205">
        <ele>268.12</ele>
        <time>2014-09-13T09:01:53Z</time>
      </trkpt>
      <trkpt lat="44.44931" lon="4.96223">
        <ele>267.8</ele>
        <time>2014-09-13T09:01:59Z</time>
      </trkpt>
      <trkpt lat="44.44939" lon="4.96242">
        <ele>268.38</ele>
        <time>2014-09-13T09:02:07Z</time>
      </trkpt>
      <trkpt lat="44.44948" lon="4.9625">
        <ele>268.42</ele>
        <time>2014-09-13T09:02:12Z</time>
      </trkpt>
      <trkpt lat="44.44958" lon="4.96257">
        <ele>269.95</ele>
        <time>2014-09-13T09:02:25Z</time>
      </trkpt>
      <trkpt lat="44.4496" lon="4.96259">
        <ele>269.94</ele>
        <time>2014-09-13T09:02:54Z</time>
      </trkpt>
      <trkpt lat="44.4496" lon="4.96261">
        <ele>270.18</ele>
        <time>2014-09-13T09:02:58Z</time>
      </trkpt>
      <trkpt lat="44.44957" lon="4.9627">
        <ele>270.23</ele>
        <time>2014-09-13T09:03:02Z</time>
      </trkpt>
      <trkpt lat="44.44956" lon="4.96272">
        <ele>270.21</ele>
        <time>2014-09-13T09:03:03Z</time>
      </trkpt>
      <trkpt lat="44.44955" lon="4.96278">
        <ele>270.33</ele>
        <time>2014-09-13T09:03:05Z</time>
      </trkpt>
      <trkpt lat="44.44955" lon="4.96283">
        <ele>270.43</ele>
        <time>2014-09-13T09:03:07Z</time>
      </trkpt>
      <trkpt lat="44.44956" lon="4.96284">
        <ele>270.45</ele>
        <time>2014-09-13T09:03:08Z</time>
      </trkpt>
      <trkpt lat="44.44955" lon="4.96289">
        <ele>270.43</ele>
        <time>2014-09-13T09:03:22Z</time>
      </trkpt>
      <trkpt lat="44.44954" lon="4.9629">
        <ele>270.33</ele>
        <time>2014-09-13T09:03:23Z</time>
      </trkpt>
      <trkpt lat="44.44952" lon="4.96291">
        <ele>270.26</ele>
        <time>2014-09-13T09:03:24Z</time>
      </trkpt>
      <trkpt lat="44.44951" lon="4.96294">
        <ele>270.17</ele>
        <time>2014-09-13T09:03:25Z</time>
      </trkpt>
      <trkpt lat="44.44949" lon="4.96296">
        <ele>270.05</ele>
        <time>2014-09-13T09:03:26Z</time>
      </trkpt>
      <trkpt lat="44.44948" lon="4.96299">
        <ele>269.9</ele>
        <time>2014-09-13T09:03:27Z</time>
      </trkpt>
      <trkpt lat="44.4493" lon="4.96344">
        <ele>270.28</ele>
        <time>2014-09-13T09:03:39Z</time>
      </trkpt>
      <trkpt lat="44.44921" lon="4.96367">
        <ele>270.62</ele>
        <time>2014-09-13T09:03:45Z</time>
      </trkpt>
      <trkpt lat="44.4492" lon="4.96371">
        <ele>270.67</ele>
        <time>2014-09-13T09:03:47Z</time>
      </trkpt>
      <trkpt lat="44.44919" lon="4.96372">
        <ele>270.81</ele>
        <time>2014-09-13T09:03:48Z</time>
      </trkpt>
      <trkpt lat="44.44918" lon="4.96375">
        <ele>270.76</ele>
        <time>2014-09-13T09:03:49Z</time>
      </trkpt>
      <trkpt lat="44.44917" lon="4.96378">
        <ele>270.79</ele>
        <time>2014-09-13T09:03:50Z</time>
      </trkpt>
      <trkpt lat="44.44915" lon="4.96381">
        <ele>270.79</ele>
        <time>2014-09-13T09:03:51Z</time>
      </trkpt>
      <trkpt lat="44.44901" lon="4.96417">
        <ele>270.86</ele>
        <time>2014-09-13T09:04:00Z</time>
      </trkpt>
      <trkpt lat="44.449" lon="4.9642">
        <ele>271.07</ele>
        <time>2014-09-13T09:04:01Z</time>
      </trkpt>
      <trkpt lat="44.44898" lon="4.96424">
        <ele>271.21</ele>
        <time>2014-09-13T09:04:02Z</time>
      </trkpt>
      <trkpt lat="44.44897" lon="4.96428">
        <ele>271.28</ele>
        <time>2014-09-13T09:04:03Z</time>
      </trkpt>
      <trkpt lat="44.44895" lon="4.96432">
        <ele>271.31</ele>
        <time>2014-09-13T09:04:04Z</time>
      </trkpt>
      <trkpt lat="44.44893" lon="4.96437">
        <ele>271.28</ele>
        <time>2014-09-13T09:04:05Z</time>
      </trkpt>
      <trkpt lat="44.44875" lon="4.96489">
        <ele>271.96</ele>
        <time>2014-09-13T09:04:17Z</time>
      </trkpt>
      <trkpt lat="44.44877" lon="4.96496">
        <ele>272.01</ele>
        <time>2014-09-13T09:04:19Z</time>
      </trkpt>
      <trkpt lat="44.44879" lon="4.96498">
        <ele>272.03</ele>
        <time>2014-09-13T09:04:20Z</time>
      </trkpt>
      <trkpt lat="44.44881" lon="4.965">
        <ele>272.05</ele>
        <time>2014-09-13T09:04:21Z</time>
      </trkpt>
      <trkpt lat="44.44883" lon="4.96502">
        <ele>272.07</ele>
        <time>2014-09-13T09:04:22Z</time>
      </trkpt>
      <trkpt lat="44.44886" lon="4.96503">
        <ele>272.08</ele>
        <time>2014-09-13T09:04:23Z</time>
      </trkpt>
      <trkpt lat="44.44888" lon="4.96503">
        <ele>272.09</ele>
        <time>2014-09-13T09:04:24Z</time>
      </trkpt>
      <trkpt lat="44.44891" lon="4.96503">
        <ele>272.12</ele>
        <time>2014-09-13T09:04:25Z</time>
      </trkpt>
      <trkpt lat="44.44897" lon="4.96501">
        <ele>272.32</ele>
        <time>2014-09-13T09:04:27Z</time>
      </trkpt>
      <trkpt lat="44.44907" lon="4.96498">
        <ele>272.6</ele>
        <time>2014-09-13T09:04:30Z</time>
      </trkpt>
      <trkpt lat="44.44966" lon="4.96471">
        <ele>273.82</ele>
        <time>2014-09-13T09:04:48Z</time>
      </trkpt>
      <trkpt lat="44.45002" lon="4.96453">
        <ele>274.56</ele>
        <time>2014-09-13T09:05:01Z</time>
      </trkpt>
      <trkpt lat="44.45009" lon="4.96449">
        <ele>275.42</ele>
        <time>2014-09-13T09:05:05Z</time>
      </trkpt>
      <trkpt lat="44.45018" lon="4.96446">
        <ele>275.47</ele>
        <time>2014-09-13T09:05:18Z</time>
      </trkpt>
      <trkpt lat="44.45023" lon="4.96444">
        <ele>275.35</ele>
        <time>2014-09-13T09:05:34Z</time>
      </trkpt>
      <trkpt lat="44.45049" lon="4.96428">
        <ele>276.74</ele>
        <time>2014-09-13T09:05:45Z</time>
      </trkpt>
      <trkpt lat="44.45055" lon="4.96424">
        <ele>277.93</ele>
        <time>2014-09-13T09:05:59Z</time>
      </trkpt>
      <trkpt lat="44.45053" lon="4.96426">
        <ele>277.93</ele>
        <time>2014-09-13T09:06:08Z</time>
      </trkpt>
      <trkpt lat="44.45027" lon="4.9644">
        <ele>277.64</ele>
        <time>2014-09-13T09:06:19Z</time>
      </trkpt>
      <trkpt lat="44.4501" lon="4.96464">
        <ele>275.29</ele>
        <time>2014-09-13T09:06:30Z</time>
      </trkpt>
      <trkpt lat="44.45011" lon="4.96504">
        <ele>275.45</ele>
        <time>2014-09-13T09:06:42Z</time>
      </trkpt>
      <trkpt lat="44.45015" lon="4.9651">
        <ele>275.79</ele>
        <time>2014-09-13T09:06:55Z</time>
      </trkpt>
      <trkpt lat="44.45012" lon="4.96506">
        <ele>275.58</ele>
        <time>2014-09-13T09:07:13Z</time>
      </trkpt>
      <trkpt lat="44.45012" lon="4.96494">
        <ele>275.23</ele>
        <time>2014-09-13T09:07:26Z</time>
      </trkpt>
      <trkpt lat="44.45005" lon="4.96462">
        <ele>275.13</ele>
        <time>2014-09-13T09:07:39Z</time>
      </trkpt>
      <trkpt lat="44.45003" lon="4.9646">
        <ele>274.62</ele>
        <time>2014-09-13T09:07:52Z</time>
      </trkpt>
      <trkpt lat="44.44989" lon="4.96464">
        <ele>274.21</ele>
        <time>2014-09-13T09:07:59Z</time>
      </trkpt>
      <trkpt lat="44.44971" lon="4.96472">
        <ele>273.85</ele>
        <time>2014-09-13T09:08:04Z</time>
      </trkpt>
      <trkpt lat="44.44948" lon="4.9648">
        <ele>273.63</ele>
        <time>2014-09-13T09:08:10Z</time>
      </trkpt>
      <trkpt lat="44.44892" lon="4.96503">
        <ele>273.47</ele>
        <time>2014-09-13T09:08:23Z</time>
      </trkpt>
      <trkpt lat="44.4489" lon="4.96508">
        <ele>273.51</ele>
        <time>2014-09-13T09:08:39Z</time>
      </trkpt>
      <trkpt lat="44.44896" lon="4.96521">
        <ele>274.03</ele>
        <time>2014-09-13T09:08:45Z</time>
      </trkpt>
      <trkpt lat="44.44904" lon="4.96553">
        <ele>274.63</ele>
        <time>2014-09-13T09:08:54Z</time>
      </trkpt>
      <trkpt lat="44.44912" lon="4.96603">
        <ele>276.21</ele>
        <time>2014-09-13T09:09:07Z</time>
      </trkpt>
      <trkpt lat="44.44914" lon="4.96637">
        <ele>277.4</ele>
        <time>2014-09-13T09:09:17Z</time>
      </trkpt>
      <trkpt lat="44.44915" lon="4.96656">
        <ele>277.73</ele>
        <time>2014-09-13T09:09:23Z</time>
      </trkpt>
      <trkpt lat="44.44933" lon="4.96665">
        <ele>278.39</ele>
        <time>2014-09-13T09:09:33Z</time>
      </trkpt>
      <trkpt lat="44.44942" lon="4.96663">
        <ele>278.11</ele>
        <time>2014-09-13T09:09:36Z</time>
      </trkpt>
      <trkpt lat="44.44956" lon="4.96659">
        <ele>277.71</ele>
        <time>2014-09-13T09:09:42Z</time>
      </trkpt>
      <trkpt lat="44.44968" lon="4.9666">
        <ele>277.45</ele>
        <time>2014-09-13T09:09:47Z</time>
      </trkpt>
      <trkpt lat="44.44975" lon="4.96667">
        <ele>277.84</ele>
        <time>2014-09-13T09:09:50Z</time>
      </trkpt>
      <trkpt lat="44.44992" lon="4.96693">
        <ele>278.73</ele>
        <time>2014-09-13T09:09:59Z</time>
      </trkpt>
      <trkpt lat="44.45008" lon="4.96736">
        <ele>279.15</ele>
        <time>2014-09-13T09:10:12Z</time>
      </trkpt>
      <trkpt lat="44.45015" lon="4.96761">
        <ele>279.65</ele>
        <time>2014-09-13T09:10:21Z</time>
      </trkpt>
      <trkpt lat="44.45017" lon="4.96776">
        <ele>279.59</ele>
        <time>2014-09-13T09:10:26Z</time>
      </trkpt>
      <trkpt lat="44.45023" lon="4.96821">
        <ele>280.9</ele>
        <time>2014-09-13T09:10:39Z</time>
      </trkpt>
      <trkpt lat="44.4503" lon="4.96858">
        <ele>281.19</ele>
        <time>2014-09-13T09:10:50Z</time>
      </trkpt>
      <trkpt lat="44.45029" lon="4.96878">
        <ele>281.75</ele>
        <time>2014-09-13T09:10:56Z</time>
      </trkpt>
      <trkpt lat="44.45028" lon="4.96888">
        <ele>282.6</ele>
        <time>2014-09-13T09:10:59Z</time>
      </trkpt>
      <trkpt lat="44.45025" lon="4.96933">
        <ele>284.06</ele>
        <time>2014-09-13T09:11:12Z</time>
      </trkpt>
      <trkpt lat="44.45025" lon="4.96944">
        <ele>284.29</ele>
        <time>2014-09-13T09:11:15Z</time>
      </trkpt>
      <trkpt lat="44.4503" lon="4.96981">
        <ele>285.34</ele>
        <time>2014-09-13T09:11:25Z</time>
      </trkpt>
      <trkpt lat="44.45051" lon="4.97039">
        <ele>286.17</ele>
        <time>2014-09-13T09:11:42Z</time>
      </trkpt>
      <trkpt lat="44.45053" lon="4.97047">
        <ele>286.16</ele>
        <time>2014-09-13T09:11:44Z</time>
      </trkpt>
      <trkpt lat="44.45077" lon="4.97096">
        <ele>288.48</ele>
        <time>2014-09-13T09:11:59Z</time>
      </trkpt>
      <trkpt lat="44.45084" lon="4.97136">
        <ele>289.51</ele>
        <time>2014-09-13T09:12:11Z</time>
      </trkpt>
      <trkpt lat="44.45086" lon="4.97163">
        <ele>290.02</ele>
        <time>2014-09-13T09:12:19Z</time>
      </trkpt>
      <trkpt lat="44.45089" lon="4.97182">
        <ele>290.07</ele>
        <time>2014-09-13T09:12:25Z</time>
      </trkpt>
      <trkpt lat="44.45089" lon="4.97195">
        <ele>289.99</ele>
        <time>2014-09-13T09:12:29Z</time>
      </trkpt>
      <trkpt lat="44.45088" lon="4.97225">
        <ele>289.77</ele>
        <time>2014-09-13T09:12:41Z</time>
      </trkpt>
      <trkpt lat="44.45088" lon="4.97227">
        <ele>289.9</ele>
        <time>2014-09-13T09:12:42Z</time>
      </trkpt>
      <trkpt lat="44.45086" lon="4.97243">
        <ele>289.92</ele>
        <time>2014-09-13T09:12:48Z</time>
      </trkpt>
      <trkpt lat="44.45082" lon="4.97264">
        <ele>290.24</ele>
        <time>2014-09-13T09:12:55Z</time>
      </trkpt>
      <trkpt lat="44.4507" lon="4.97311">
        <ele>289.51</ele>
        <time>2014-09-13T09:13:07Z</time>
      </trkpt>
      <trkpt lat="44.45069" lon="4.97315">
        <ele>289.36</ele>
        <time>2014-09-13T09:13:08Z</time>
      </trkpt>
      <trkpt lat="44.45069" lon="4.9732">
        <ele>289.28</ele>
        <time>2014-09-13T09:13:09Z</time>
      </trkpt>
      <trkpt lat="44.45068" lon="4.97324">
        <ele>289.26</ele>
        <time>2014-09-13T09:13:10Z</time>
      </trkpt>
      <trkpt lat="44.45067" lon="4.97328">
        <ele>289.21</ele>
        <time>2014-09-13T09:13:11Z</time>
      </trkpt>
      <trkpt lat="44.45067" lon="4.97331">
        <ele>289.19</ele>
        <time>2014-09-13T09:13:12Z</time>
      </trkpt>
      <trkpt lat="44.45066" lon="4.97335">
        <ele>289.17</ele>
        <time>2014-09-13T09:13:13Z</time>
      </trkpt>
      <trkpt lat="44.45065" lon="4.97339">
        <ele>289.17</ele>
        <time>2014-09-13T09:13:14Z</time>
      </trkpt>
      <trkpt lat="44.45064" lon="4.97342">
        <ele>289.17</ele>
        <time>2014-09-13T09:13:15Z</time>
      </trkpt>
      <trkpt lat="44.45063" lon="4.97346">
        <ele>289.17</ele>
        <time>2014-09-13T09:13:16Z</time>
      </trkpt>
      <trkpt lat="44.45063" lon="4.97349">
        <ele>289.11</ele>
        <time>2014-09-13T09:13:17Z</time>
      </trkpt>
      <trkpt lat="44.45063" lon="4.97352">
        <ele>289.12</ele>
        <time>2014-09-13T09:13:18Z</time>
      </trkpt>
      <trkpt lat="44.45062" lon="4.97355">
        <ele>289.19</ele>
        <time>2014-09-13T09:13:19Z</time>
      </trkpt>
      <trkpt lat="44.45061" lon="4.97359">
        <ele>289.32</ele>
        <time>2014-09-13T09:13:20Z</time>
      </trkpt>
      <trkpt lat="44.45061" lon="4.97363">
        <ele>289.4</ele>
        <time>2014-09-13T09:13:21Z</time>
      </trkpt>
      <trkpt lat="44.45061" lon="4.97366">
        <ele>289.33</ele>
        <time>2014-09-13T09:13:22Z</time>
      </trkpt>
      <trkpt lat="44.45061" lon="4.9737">
        <ele>289.3</ele>
        <time>2014-09-13T09:13:23Z</time>
      </trkpt>
      <trkpt lat="44.45061" lon="4.97373">
        <ele>289.28</ele>
        <time>2014-09-13T09:13:24Z</time>
      </trkpt>
      <trkpt lat="44.4506" lon="4.97379">
        <ele>288.97</ele>
        <time>2014-09-13T09:13:26Z</time>
      </trkpt>
      <trkpt lat="44.45061" lon="4.97383">
        <ele>288.87</ele>
        <time>2014-09-13T09:13:27Z</time>
      </trkpt>
      <trkpt lat="44.45062" lon="4.97386">
        <ele>288.83</ele>
        <time>2014-09-13T09:13:28Z</time>
      </trkpt>
      <trkpt lat="44.45063" lon="4.97389">
        <ele>288.87</ele>
        <time>2014-09-13T09:13:29Z</time>
      </trkpt>
      <trkpt lat="44.45064" lon="4.97392">
        <ele>288.97</ele>
        <time>2014-09-13T09:13:30Z</time>
      </trkpt>
      <trkpt lat="44.45065" lon="4.97396">
        <ele>289.31</ele>
        <time>2014-09-13T09:13:32Z</time>
      </trkpt>
      <trkpt lat="44.45064" lon="4.97399">
        <ele>289.78</ele>
        <time>2014-09-13T09:13:49Z</time>
      </trkpt>
      <trkpt lat="44.45064" lon="4.97401">
        <ele>289.59</ele>
        <time>2014-09-13T09:14:18Z</time>
      </trkpt>
      <trkpt lat="44.45065" lon="4.97401">
        <ele>289.85</ele>
        <time>2014-09-13T09:14:45Z</time>
      </trkpt>
      <trkpt lat="44.45066" lon="4.97402">
        <ele>289.97</ele>
        <time>2014-09-13T09:15:13Z</time>
      </trkpt>
      <trkpt lat="44.45066" lon="4.97404">
        <ele>290.04</ele>
        <time>2014-09-13T09:15:14Z</time>
      </trkpt>
      <trkpt lat="44.45068" lon="4.97409">
        <ele>290.65</ele>
        <time>2014-09-13T09:15:16Z</time>
      </trkpt>
      <trkpt lat="44.45069" lon="4.97413">
        <ele>290.8</ele>
        <time>2014-09-13T09:15:17Z</time>
      </trkpt>
      <trkpt lat="44.4507" lon="4.97416">
        <ele>290.89</ele>
        <time>2014-09-13T09:15:18Z</time>
      </trkpt>
      <trkpt lat="44.4507" lon="4.9742">
        <ele>290.93</ele>
        <time>2014-09-13T09:15:19Z</time>
      </trkpt>
      <trkpt lat="44.45071" lon="4.97424">
        <ele>290.94</ele>
        <time>2014-09-13T09:15:20Z</time>
      </trkpt>
      <trkpt lat="44.45072" lon="4.97428">
        <ele>290.89</ele>
        <time>2014-09-13T09:15:21Z</time>
      </trkpt>
      <trkpt lat="44.45081" lon="4.97475">
        <ele>292.05</ele>
        <time>2014-09-13T09:15:36Z</time>
      </trkpt>
      <trkpt lat="44.4509" lon="4.97488">
        <ele>292.39</ele>
        <time>2014-09-13T09:15:42Z</time>
      </trkpt>
      <trkpt lat="44.4511" lon="4.97495">
        <ele>293.43</ele>
        <time>2014-09-13T09:15:52Z</time>
      </trkpt>
      <trkpt lat="44.45117" lon="4.97499">
        <ele>294.33</ele>
        <time>2014-09-13T09:15:56Z</time>
      </trkpt>
      <trkpt lat="44.45123" lon="4.97502">
        <ele>294.56</ele>
        <time>2014-09-13T09:15:59Z</time>
      </trkpt>
      <trkpt lat="44.45125" lon="4.97502">
        <ele>294.6</ele>
        <time>2014-09-13T09:16:00Z</time>
      </trkpt>
      <trkpt lat="44.45126" lon="4.97502">
        <ele>294.56</ele>
        <time>2014-09-13T09:16:01Z</time>
      </trkpt>
      <trkpt lat="44.45128" lon="4.97501">
        <ele>294.6</ele>
        <time>2014-09-13T09:16:02Z</time>
      </trkpt>
      <trkpt lat="44.45129" lon="4.97501">
        <ele>294.72</ele>
        <time>2014-09-13T09:16:03Z</time>
      </trkpt>
      <trkpt lat="44.4513" lon="4.97501">
        <ele>294.88</ele>
        <time>2014-09-13T09:16:04Z</time>
      </trkpt>
      <trkpt lat="44.45133" lon="4.97502">
        <ele>295</ele>
        <time>2014-09-13T09:16:06Z</time>
      </trkpt>
      <trkpt lat="44.45134" lon="4.97504">
        <ele>295.03</ele>
        <time>2014-09-13T09:16:07Z</time>
      </trkpt>
      <trkpt lat="44.45137" lon="4.97507">
        <ele>295.68</ele>
        <time>2014-09-13T09:16:27Z</time>
      </trkpt>
      <trkpt lat="44.45139" lon="4.97508">
        <ele>294.99</ele>
        <time>2014-09-13T09:16:47Z</time>
      </trkpt>
      <trkpt lat="44.45142" lon="4.97511">
        <ele>295.9</ele>
        <time>2014-09-13T09:17:03Z</time>
      </trkpt>
      <trkpt lat="44.45144" lon="4.97512">
        <ele>295.92</ele>
        <time>2014-09-13T09:17:04Z</time>
      </trkpt>
      <trkpt lat="44.45149" lon="4.9751">
        <ele>296.22</ele>
        <time>2014-09-13T09:17:09Z</time>
      </trkpt>
      <trkpt lat="44.45151" lon="4.9751">
        <ele>296.38</ele>
        <time>2014-09-13T09:17:10Z</time>
      </trkpt>
      <trkpt lat="44.45152" lon="4.97509">
        <ele>296.33</ele>
        <time>2014-09-13T09:17:11Z</time>
      </trkpt>
      <trkpt lat="44.45153" lon="4.97508">
        <ele>296.31</ele>
        <time>2014-09-13T09:17:12Z</time>
      </trkpt>
      <trkpt lat="44.45155" lon="4.97508">
        <ele>296.3</ele>
        <time>2014-09-13T09:17:13Z</time>
      </trkpt>
      <trkpt lat="44.45157" lon="4.97509">
        <ele>295.96</ele>
        <time>2014-09-13T09:17:27Z</time>
      </trkpt>
      <trkpt lat="44.45158" lon="4.97511">
        <ele>295.99</ele>
        <time>2014-09-13T09:17:28Z</time>
      </trkpt>
      <trkpt lat="44.45158" lon="4.97513">
        <ele>295.98</ele>
        <time>2014-09-13T09:17:29Z</time>
      </trkpt>
      <trkpt lat="44.45158" lon="4.97516">
        <ele>296.08</ele>
        <time>2014-09-13T09:17:30Z</time>
      </trkpt>
      <trkpt lat="44.4516" lon="4.97563">
        <ele>296.29</ele>
        <time>2014-09-13T09:17:43Z</time>
      </trkpt>
      <trkpt lat="44.4516" lon="4.97567">
        <ele>296.15</ele>
        <time>2014-09-13T09:17:44Z</time>
      </trkpt>
      <trkpt lat="44.45161" lon="4.97571">
        <ele>296</ele>
        <time>2014-09-13T09:17:45Z</time>
      </trkpt>
      <trkpt lat="44.45161" lon="4.97575">
        <ele>296.07</ele>
        <time>2014-09-13T09:17:46Z</time>
      </trkpt>
      <trkpt lat="44.45162" lon="4.97579">
        <ele>295.96</ele>
        <time>2014-09-13T09:17:47Z</time>
      </trkpt>
      <trkpt lat="44.45162" lon="4.97583">
        <ele>295.92</ele>
        <time>2014-09-13T09:17:48Z</time>
      </trkpt>
      <trkpt lat="44.45162" lon="4.97588">
        <ele>295.73</ele>
        <time>2014-09-13T09:17:49Z</time>
      </trkpt>
      <trkpt lat="44.45163" lon="4.97593">
        <ele>295.54</ele>
        <time>2014-09-13T09:17:50Z</time>
      </trkpt>
      <trkpt lat="44.45163" lon="4.97598">
        <ele>295.36</ele>
        <time>2014-09-13T09:17:51Z</time>
      </trkpt>
      <trkpt lat="44.45165" lon="4.9766">
        <ele>295.15</ele>
        <time>2014-09-13T09:18:05Z</time>
      </trkpt>
      <trkpt lat="44.45161" lon="4.97731">
        <ele>295.14</ele>
        <time>2014-09-13T09:18:19Z</time>
      </trkpt>
      <trkpt lat="44.45161" lon="4.97741">
        <ele>295.04</ele>
        <time>2014-09-13T09:18:21Z</time>
      </trkpt>
      <trkpt lat="44.45162" lon="4.97765">
        <ele>295.54</ele>
        <time>2014-09-13T09:18:26Z</time>
      </trkpt>
      <trkpt lat="44.45163" lon="4.97781">
        <ele>295.7</ele>
        <time>2014-09-13T09:18:29Z</time>
      </trkpt>
      <trkpt lat="44.45174" lon="4.97826">
        <ele>296.78</ele>
        <time>2014-09-13T09:18:39Z</time>
      </trkpt>
      <trkpt lat="44.45177" lon="4.97833">
        <ele>297.21</ele>
        <time>2014-09-13T09:18:41Z</time>
      </trkpt>
      <trkpt lat="44.45184" lon="4.97857">
        <ele>298.17</ele>
        <time>2014-09-13T09:18:47Z</time>
      </trkpt>
      <trkpt lat="44.45187" lon="4.97884">
        <ele>298.86</ele>
        <time>2014-09-13T09:18:54Z</time>
      </trkpt>
      <trkpt lat="44.45187" lon="4.97947">
        <ele>299.68</ele>
        <time>2014-09-13T09:19:08Z</time>
      </trkpt>
      <trkpt lat="44.45191" lon="4.9797">
        <ele>299.98</ele>
        <time>2014-09-13T09:19:13Z</time>
      </trkpt>
      <trkpt lat="44.45199" lon="4.98013">
        <ele>301.51</ele>
        <time>2014-09-13T09:19:24Z</time>
      </trkpt>
      <trkpt lat="44.45199" lon="4.9802">
        <ele>301.86</ele>
        <time>2014-09-13T09:19:26Z</time>
      </trkpt>
      <trkpt lat="44.45207" lon="4.98056">
        <ele>304.02</ele>
        <time>2014-09-13T09:19:36Z</time>
      </trkpt>
      <trkpt lat="44.45208" lon="4.98063">
        <ele>304.88</ele>
        <time>2014-09-13T09:19:38Z</time>
      </trkpt>
      <trkpt lat="44.45217" lon="4.98107">
        <ele>305.93</ele>
        <time>2014-09-13T09:19:50Z</time>
      </trkpt>
      <trkpt lat="44.45219" lon="4.98124">
        <ele>306.36</ele>
        <time>2014-09-13T09:19:55Z</time>
      </trkpt>
      <trkpt lat="44.45224" lon="4.9815">
        <ele>306.11</ele>
        <time>2014-09-13T09:20:03Z</time>
      </trkpt>
      <trkpt lat="44.45224" lon="4.98167">
        <ele>306.52</ele>
        <time>2014-09-13T09:20:08Z</time>
      </trkpt>
      <trkpt lat="44.45221" lon="4.98192">
        <ele>307.24</ele>
        <time>2014-09-13T09:20:14Z</time>
      </trkpt>
      <trkpt lat="44.45229" lon="4.98256">
        <ele>309.12</ele>
        <time>2014-09-13T09:20:29Z</time>
      </trkpt>
      <trkpt lat="44.45229" lon="4.98268">
        <ele>309.16</ele>
        <time>2014-09-13T09:20:32Z</time>
      </trkpt>
      <trkpt lat="44.45227" lon="4.98288">
        <ele>309.3</ele>
        <time>2014-09-13T09:20:37Z</time>
      </trkpt>
      <trkpt lat="44.45225" lon="4.98304">
        <ele>309.24</ele>
        <time>2014-09-13T09:20:41Z</time>
      </trkpt>
      <trkpt lat="44.4522" lon="4.9834">
        <ele>309.9</ele>
        <time>2014-09-13T09:20:51Z</time>
      </trkpt>
      <trkpt lat="44.4522" lon="4.98355">
        <ele>310.03</ele>
        <time>2014-09-13T09:20:55Z</time>
      </trkpt>
      <trkpt lat="44.4522" lon="4.98367">
        <ele>310.09</ele>
        <time>2014-09-13T09:20:58Z</time>
      </trkpt>
      <trkpt lat="44.45219" lon="4.98388">
        <ele>310.04</ele>
        <time>2014-09-13T09:21:03Z</time>
      </trkpt>
      <trkpt lat="44.45219" lon="4.98407">
        <ele>310.4</ele>
        <time>2014-09-13T09:21:08Z</time>
      </trkpt>
      <trkpt lat="44.45224" lon="4.98449">
        <ele>311.08</ele>
        <time>2014-09-13T09:21:21Z</time>
      </trkpt>
      <trkpt lat="44.45229" lon="4.98458">
        <ele>311.87</ele>
        <time>2014-09-13T09:21:25Z</time>
      </trkpt>
      <trkpt lat="44.45238" lon="4.9849">
        <ele>313.94</ele>
        <time>2014-09-13T09:21:37Z</time>
      </trkpt>
      <trkpt lat="44.45245" lon="4.98545">
        <ele>316.04</ele>
        <time>2014-09-13T09:21:55Z</time>
      </trkpt>
      <trkpt lat="44.4525" lon="4.98579">
        <ele>317.85</ele>
        <time>2014-09-13T09:22:07Z</time>
      </trkpt>
      <trkpt lat="44.4525" lon="4.98591">
        <ele>318.93</ele>
        <time>2014-09-13T09:22:12Z</time>
      </trkpt>
      <trkpt lat="44.45251" lon="4.98598">
        <ele>319.14</ele>
        <time>2014-09-13T09:22:15Z</time>
      </trkpt>
      <trkpt lat="44.45256" lon="4.9862">
        <ele>319.62</ele>
        <time>2014-09-13T09:22:27Z</time>
      </trkpt>
      <trkpt lat="44.4526" lon="4.98634">
        <ele>320.92</ele>
        <time>2014-09-13T09:22:41Z</time>
      </trkpt>
      <trkpt lat="44.4526" lon="4.98638">
        <ele>321.1</ele>
        <time>2014-09-13T09:23:17Z</time>
      </trkpt>
      <trkpt lat="44.4526" lon="4.98641">
        <ele>321.35</ele>
        <time>2014-09-13T09:23:19Z</time>
      </trkpt>
      <trkpt lat="44.45262" lon="4.98647">
        <ele>321.44</ele>
        <time>2014-09-13T09:23:22Z</time>
      </trkpt>
      <trkpt lat="44.45273" lon="4.98679">
        <ele>322.71</ele>
        <time>2014-09-13T09:23:36Z</time>
      </trkpt>
      <trkpt lat="44.45275" lon="4.98685">
        <ele>322.86</ele>
        <time>2014-09-13T09:23:38Z</time>
      </trkpt>
      <trkpt lat="44.4528" lon="4.98702">
        <ele>323.94</ele>
        <time>2014-09-13T09:23:45Z</time>
      </trkpt>
      <trkpt lat="44.45291" lon="4.98733">
        <ele>325.29</ele>
        <time>2014-09-13T09:23:58Z</time>
      </trkpt>
      <trkpt lat="44.45296" lon="4.98756">
        <ele>326.36</ele>
        <time>2014-09-13T09:24:06Z</time>
      </trkpt>
      <trkpt lat="44.45303" lon="4.98791">
        <ele>328.4</ele>
        <time>2014-09-13T09:24:18Z</time>
      </trkpt>
      <trkpt lat="44.45301" lon="4.98839">
        <ele>329.56</ele>
        <time>2014-09-13T09:24:35Z</time>
      </trkpt>
      <trkpt lat="44.453" lon="4.98842">
        <ele>329.55</ele>
        <time>2014-09-13T09:24:36Z</time>
      </trkpt>
      <trkpt lat="44.453" lon="4.98845">
        <ele>329.54</ele>
        <time>2014-09-13T09:24:37Z</time>
      </trkpt>
      <trkpt lat="44.45299" lon="4.98849">
        <ele>329.5</ele>
        <time>2014-09-13T09:24:38Z</time>
      </trkpt>
      <trkpt lat="44.45299" lon="4.98852">
        <ele>329.42</ele>
        <time>2014-09-13T09:24:39Z</time>
      </trkpt>
      <trkpt lat="44.45298" lon="4.98855">
        <ele>329.26</ele>
        <time>2014-09-13T09:24:40Z</time>
      </trkpt>
      <trkpt lat="44.45298" lon="4.98859">
        <ele>329.08</ele>
        <time>2014-09-13T09:24:41Z</time>
      </trkpt>
      <trkpt lat="44.45296" lon="4.989">
        <ele>329.05</ele>
        <time>2014-09-13T09:24:51Z</time>
      </trkpt>
      <trkpt lat="44.45294" lon="4.98961">
        <ele>328.52</ele>
        <time>2014-09-13T09:25:03Z</time>
      </trkpt>
      <trkpt lat="44.45296" lon="4.98979">
        <ele>328.72</ele>
        <time>2014-09-13T09:25:07Z</time>
      </trkpt>
      <trkpt lat="44.453" lon="4.98993">
        <ele>328.99</ele>
        <time>2014-09-13T09:25:10Z</time>
      </trkpt>
      <trkpt lat="44.4531" lon="4.99006">
        <ele>329.26</ele>
        <time>2014-09-13T09:25:15Z</time>
      </trkpt>
      <trkpt lat="44.4532" lon="4.99009">
        <ele>330.24</ele>
        <time>2014-09-13T09:25:18Z</time>
      </trkpt>
      <trkpt lat="44.45328" lon="4.99015">
        <ele>330.46</ele>
        <time>2014-09-13T09:25:21Z</time>
      </trkpt>
      <trkpt lat="44.45331" lon="4.99056">
        <ele>330.86</ele>
        <time>2014-09-13T09:25:32Z</time>
      </trkpt>
      <trkpt lat="44.45324" lon="4.99109">
        <ele>331.53</ele>
        <time>2014-09-13T09:25:45Z</time>
      </trkpt>
      <trkpt lat="44.45331" lon="4.99127">
        <ele>331.34</ele>
        <time>2014-09-13T09:25:50Z</time>
      </trkpt>
      <trkpt lat="44.45332" lon="4.99134">
        <ele>331.45</ele>
        <time>2014-09-13T09:25:52Z</time>
      </trkpt>
      <trkpt lat="44.45332" lon="4.99149">
        <ele>332.44</ele>
        <time>2014-09-13T09:25:56Z</time>
      </trkpt>
      <trkpt lat="44.45325" lon="4.99177">
        <ele>333.41</ele>
        <time>2014-09-13T09:26:03Z</time>
      </trkpt>
      <trkpt lat="44.453" lon="4.99218">
        <ele>333.48</ele>
        <time>2014-09-13T09:26:16Z</time>
      </trkpt>
      <trkpt lat="44.45289" lon="4.99228">
        <ele>332.7</ele>
        <time>2014-09-13T09:26:21Z</time>
      </trkpt>
      <trkpt lat="44.45256" lon="4.99246">
        <ele>330.94</ele>
        <time>2014-09-13T09:26:31Z</time>
      </trkpt>
      <trkpt lat="44.45254" lon="4.9925">
        <ele>330.67</ele>
        <time>2014-09-13T09:26:32Z</time>
      </trkpt>
      <trkpt lat="44.45252" lon="4.99254">
        <ele>330.42</ele>
        <time>2014-09-13T09:26:33Z</time>
      </trkpt>
      <trkpt lat="44.4525" lon="4.99258">
        <ele>330.23</ele>
        <time>2014-09-13T09:26:34Z</time>
      </trkpt>
      <trkpt lat="44.45248" lon="4.99263">
        <ele>330.07</ele>
        <time>2014-09-13T09:26:35Z</time>
      </trkpt>
      <trkpt lat="44.45247" lon="4.99267">
        <ele>329.93</ele>
        <time>2014-09-13T09:26:36Z</time>
      </trkpt>
      <trkpt lat="44.45246" lon="4.99271">
        <ele>329.86</ele>
        <time>2014-09-13T09:26:37Z</time>
      </trkpt>
      <trkpt lat="44.45244" lon="4.99275">
        <ele>329.9</ele>
        <time>2014-09-13T09:26:38Z</time>
      </trkpt>
      <trkpt lat="44.45243" lon="4.99279">
        <ele>329.92</ele>
        <time>2014-09-13T09:26:39Z</time>
      </trkpt>
      <trkpt lat="44.45242" lon="4.99282">
        <ele>329.89</ele>
        <time>2014-09-13T09:26:40Z</time>
      </trkpt>
      <trkpt lat="44.45241" lon="4.99284">
        <ele>329.89</ele>
        <time>2014-09-13T09:26:41Z</time>
      </trkpt>
      <trkpt lat="44.45241" lon="4.99286">
        <ele>329.84</ele>
        <time>2014-09-13T09:26:42Z</time>
      </trkpt>
      <trkpt lat="44.4524" lon="4.99287">
        <ele>329.36</ele>
        <time>2014-09-13T09:26:58Z</time>
      </trkpt>
      <trkpt lat="44.45238" lon="4.99292">
        <ele>329.7</ele>
        <time>2014-09-13T09:27:09Z</time>
      </trkpt>
      <trkpt lat="44.45231" lon="4.99306">
        <ele>329.08</ele>
        <time>2014-09-13T09:27:14Z</time>
      </trkpt>
      <trkpt lat="44.45227" lon="4.99315">
        <ele>328.97</ele>
        <time>2014-09-13T09:27:16Z</time>
      </trkpt>
      <trkpt lat="44.45225" lon="4.99319">
        <ele>328.91</ele>
        <time>2014-09-13T09:27:17Z</time>
      </trkpt>
      <trkpt lat="44.4522" lon="4.99329">
        <ele>328.86</ele>
        <time>2014-09-13T09:27:19Z</time>
      </trkpt>
      <trkpt lat="44.45218" lon="4.99333">
        <ele>328.74</ele>
        <time>2014-09-13T09:27:20Z</time>
      </trkpt>
      <trkpt lat="44.45214" lon="4.99338">
        <ele>328.69</ele>
        <time>2014-09-13T09:27:21Z</time>
      </trkpt>
      <trkpt lat="44.45211" lon="4.99342">
        <ele>328.63</ele>
        <time>2014-09-13T09:27:22Z</time>
      </trkpt>
      <trkpt lat="44.45206" lon="4.99345">
        <ele>328.51</ele>
        <time>2014-09-13T09:27:23Z</time>
      </trkpt>
      <trkpt lat="44.45201" lon="4.99345">
        <ele>328.22</ele>
        <time>2014-09-13T09:27:24Z</time>
      </trkpt>
      <trkpt lat="44.45192" lon="4.9934">
        <ele>327.77</ele>
        <time>2014-09-13T09:27:26Z</time>
      </trkpt>
      <trkpt lat="44.45187" lon="4.99335">
        <ele>327.54</ele>
        <time>2014-09-13T09:27:27Z</time>
      </trkpt>
      <trkpt lat="44.45184" lon="4.99329">
        <ele>327.17</ele>
        <time>2014-09-13T09:27:28Z</time>
      </trkpt>
      <trkpt lat="44.45182" lon="4.99321">
        <ele>326.81</ele>
        <time>2014-09-13T09:27:29Z</time>
      </trkpt>
      <trkpt lat="44.45181" lon="4.99312">
        <ele>326.55</ele>
        <time>2014-09-13T09:27:30Z</time>
      </trkpt>
      <trkpt lat="44.45179" lon="4.99291">
        <ele>325.93</ele>
        <time>2014-09-13T09:27:32Z</time>
      </trkpt>
      <trkpt lat="44.45177" lon="4.99281">
        <ele>325.41</ele>
        <time>2014-09-13T09:27:33Z</time>
      </trkpt>
      <trkpt lat="44.45174" lon="4.99271">
        <ele>324.73</ele>
        <time>2014-09-13T09:27:34Z</time>
      </trkpt>
      <trkpt lat="44.4517" lon="4.99261">
        <ele>324.18</ele>
        <time>2014-09-13T09:27:35Z</time>
      </trkpt>
      <trkpt lat="44.45166" lon="4.99252">
        <ele>323.84</ele>
        <time>2014-09-13T09:27:36Z</time>
      </trkpt>
      <trkpt lat="44.45161" lon="4.99243">
        <ele>323.61</ele>
        <time>2014-09-13T09:27:37Z</time>
      </trkpt>
      <trkpt lat="44.45125" lon="4.99187">
        <ele>319.96</ele>
        <time>2014-09-13T09:27:43Z</time>
      </trkpt>
      <trkpt lat="44.45113" lon="4.99168">
        <ele>318.26</ele>
        <time>2014-09-13T09:27:45Z</time>
      </trkpt>
      <trkpt lat="44.45103" lon="4.99146">
        <ele>317.2</ele>
        <time>2014-09-13T09:27:47Z</time>
      </trkpt>
      <trkpt lat="44.45089" lon="4.99096">
        <ele>314.07</ele>
        <time>2014-09-13T09:27:51Z</time>
      </trkpt>
      <trkpt lat="44.4507" lon="4.99032">
        <ele>310.68</ele>
        <time>2014-09-13T09:27:56Z</time>
      </trkpt>
      <trkpt lat="44.45042" lon="4.98943">
        <ele>307.36</ele>
        <time>2014-09-13T09:28:03Z</time>
      </trkpt>
      <trkpt lat="44.45037" lon="4.98933">
        <ele>306.55</ele>
        <time>2014-09-13T09:28:04Z</time>
      </trkpt>
      <trkpt lat="44.45031" lon="4.98923">
        <ele>305.78</ele>
        <time>2014-09-13T09:28:05Z</time>
      </trkpt>
      <trkpt lat="44.45013" lon="4.98894">
        <ele>304.65</ele>
        <time>2014-09-13T09:28:08Z</time>
      </trkpt>
      <trkpt lat="44.45006" lon="4.98885">
        <ele>304.32</ele>
        <time>2014-09-13T09:28:09Z</time>
      </trkpt>
      <trkpt lat="44.44965" lon="4.98831">
        <ele>301.2</ele>
        <time>2014-09-13T09:28:15Z</time>
      </trkpt>
      <trkpt lat="44.44921" lon="4.98775">
        <ele>298.02</ele>
        <time>2014-09-13T09:28:21Z</time>
      </trkpt>
      <trkpt lat="44.44895" lon="4.98738">
        <ele>296.22</ele>
        <time>2014-09-13T09:28:25Z</time>
      </trkpt>
      <trkpt lat="44.44882" lon="4.98708">
        <ele>294.81</ele>
        <time>2014-09-13T09:28:28Z</time>
      </trkpt>
      <trkpt lat="44.44863" lon="4.98646">
        <ele>291.03</ele>
        <time>2014-09-13T09:28:35Z</time>
      </trkpt>
      <trkpt lat="44.44854" lon="4.98629">
        <ele>290.22</ele>
        <time>2014-09-13T09:28:37Z</time>
      </trkpt>
      <trkpt lat="44.44844" lon="4.98611">
        <ele>289.75</ele>
        <time>2014-09-13T09:28:39Z</time>
      </trkpt>
      <trkpt lat="44.44838" lon="4.98603">
        <ele>288.99</ele>
        <time>2014-09-13T09:28:40Z</time>
      </trkpt>
      <trkpt lat="44.44831" lon="4.98596">
        <ele>288.15</ele>
        <time>2014-09-13T09:28:41Z</time>
      </trkpt>
      <trkpt lat="44.44823" lon="4.98592">
        <ele>287.59</ele>
        <time>2014-09-13T09:28:42Z</time>
      </trkpt>
      <trkpt lat="44.44778" lon="4.98576">
        <ele>284.01</ele>
        <time>2014-09-13T09:28:47Z</time>
      </trkpt>
      <trkpt lat="44.44727" lon="4.98555">
        <ele>280.74</ele>
        <time>2014-09-13T09:28:52Z</time>
      </trkpt>
      <trkpt lat="44.44708" lon="4.98546">
        <ele>280.3</ele>
        <time>2014-09-13T09:28:54Z</time>
      </trkpt>
      <trkpt lat="44.44699" lon="4.98541">
        <ele>279.85</ele>
        <time>2014-09-13T09:28:55Z</time>
      </trkpt>
      <trkpt lat="44.44684" lon="4.98526">
        <ele>278.87</ele>
        <time>2014-09-13T09:28:57Z</time>
      </trkpt>
      <trkpt lat="44.44622" lon="4.98452">
        <ele>275.6</ele>
        <time>2014-09-13T09:29:06Z</time>
      </trkpt>
      <trkpt lat="44.44587" lon="4.98399">
        <ele>272.94</ele>
        <time>2014-09-13T09:29:12Z</time>
      </trkpt>
      <trkpt lat="44.4458" lon="4.98383">
        <ele>272.14</ele>
        <time>2014-09-13T09:29:14Z</time>
      </trkpt>
      <trkpt lat="44.44564" lon="4.98338">
        <ele>270.59</ele>
        <time>2014-09-13T09:29:20Z</time>
      </trkpt>
      <trkpt lat="44.44561" lon="4.98332">
        <ele>270.09</ele>
        <time>2014-09-13T09:29:21Z</time>
      </trkpt>
      <trkpt lat="44.44557" lon="4.98327">
        <ele>269.59</ele>
        <time>2014-09-13T09:29:22Z</time>
      </trkpt>
      <trkpt lat="44.44552" lon="4.98324">
        <ele>269.15</ele>
        <time>2014-09-13T09:29:23Z</time>
      </trkpt>
      <trkpt lat="44.44548" lon="4.98322">
        <ele>268.71</ele>
        <time>2014-09-13T09:29:24Z</time>
      </trkpt>
      <trkpt lat="44.44544" lon="4.98321">
        <ele>268.13</ele>
        <time>2014-09-13T09:29:25Z</time>
      </trkpt>
      <trkpt lat="44.4454" lon="4.9832">
        <ele>268.13</ele>
        <time>2014-09-13T09:29:26Z</time>
      </trkpt>
      <trkpt lat="44.44527" lon="4.98312">
        <ele>266.36</ele>
        <time>2014-09-13T09:29:30Z</time>
      </trkpt>
      <trkpt lat="44.44524" lon="4.98308">
        <ele>266.21</ele>
        <time>2014-09-13T09:29:31Z</time>
      </trkpt>
      <trkpt lat="44.44517" lon="4.98298">
        <ele>266.03</ele>
        <time>2014-09-13T09:29:33Z</time>
      </trkpt>
      <trkpt lat="44.44514" lon="4.98292">
        <ele>265.96</ele>
        <time>2014-09-13T09:29:34Z</time>
      </trkpt>
      <trkpt lat="44.44468" lon="4.98204">
        <ele>263.91</ele>
        <time>2014-09-13T09:29:49Z</time>
      </trkpt>
      <trkpt lat="44.44451" lon="4.98168">
        <ele>263.89</ele>
        <time>2014-09-13T09:29:57Z</time>
      </trkpt>
      <trkpt lat="44.4445" lon="4.98165">
        <ele>263.86</ele>
        <time>2014-09-13T09:29:58Z</time>
      </trkpt>
      <trkpt lat="44.44448" lon="4.9816">
        <ele>263.41</ele>
        <time>2014-09-13T09:30:00Z</time>
      </trkpt>
      <trkpt lat="44.44444" lon="4.98156">
        <ele>263.1</ele>
        <time>2014-09-13T09:30:02Z</time>
      </trkpt>
      <trkpt lat="44.44442" lon="4.98155">
        <ele>262.86</ele>
        <time>2014-09-13T09:30:03Z</time>
      </trkpt>
      <trkpt lat="44.4444" lon="4.98155">
        <ele>262.55</ele>
        <time>2014-09-13T09:30:04Z</time>
      </trkpt>
      <trkpt lat="44.44438" lon="4.98156">
        <ele>262.39</ele>
        <time>2014-09-13T09:30:05Z</time>
      </trkpt>
      <trkpt lat="44.44435" lon="4.98155">
        <ele>261.54</ele>
        <time>2014-09-13T09:30:18Z</time>
      </trkpt>
      <trkpt lat="44.44435" lon="4.98156">
        <ele>262.22</ele>
        <time>2014-09-13T09:30:48Z</time>
      </trkpt>
      <trkpt lat="44.44432" lon="4.98152">
        <ele>262.74</ele>
        <time>2014-09-13T09:31:13Z</time>
      </trkpt>
      <trkpt lat="44.44432" lon="4.9815">
        <ele>262.73</ele>
        <time>2014-09-13T09:31:14Z</time>
      </trkpt>
      <trkpt lat="44.44418" lon="4.9813">
        <ele>262.74</ele>
        <time>2014-09-13T09:31:24Z</time>
      </trkpt>
      <trkpt lat="44.44416" lon="4.98129">
        <ele>263.22</ele>
        <time>2014-09-13T09:31:25Z</time>
      </trkpt>
      <trkpt lat="44.44415" lon="4.98129">
        <ele>263.72</ele>
        <time>2014-09-13T09:31:26Z</time>
      </trkpt>
      <trkpt lat="44.44413" lon="4.98129">
        <ele>263.96</ele>
        <time>2014-09-13T09:31:27Z</time>
      </trkpt>
      <trkpt lat="44.44403" lon="4.98129">
        <ele>264.13</ele>
        <time>2014-09-13T09:31:37Z</time>
      </trkpt>
      <trkpt lat="44.44401" lon="4.98128">
        <ele>264.13</ele>
        <time>2014-09-13T09:31:38Z</time>
      </trkpt>
      <trkpt lat="44.444" lon="4.98128">
        <ele>264.1</ele>
        <time>2014-09-13T09:31:39Z</time>
      </trkpt>
      <trkpt lat="44.44399" lon="4.98127">
        <ele>264.18</ele>
        <time>2014-09-13T09:31:40Z</time>
      </trkpt>
      <trkpt lat="44.44391" lon="4.98127">
        <ele>264.73</ele>
        <time>2014-09-13T09:31:48Z</time>
      </trkpt>
      <trkpt lat="44.44389" lon="4.98127">
        <ele>264.91</ele>
        <time>2014-09-13T09:31:49Z</time>
      </trkpt>
      <trkpt lat="44.44387" lon="4.98127">
        <ele>265.07</ele>
        <time>2014-09-13T09:31:50Z</time>
      </trkpt>
      <trkpt lat="44.44387" lon="4.98125">
        <ele>265.18</ele>
        <time>2014-09-13T09:31:51Z</time>
      </trkpt>
      <trkpt lat="44.44385" lon="4.98125">
        <ele>265.4</ele>
        <time>2014-09-13T09:31:52Z</time>
      </trkpt>
      <trkpt lat="44.44383" lon="4.98124">
        <ele>265.44</ele>
        <time>2014-09-13T09:31:53Z</time>
      </trkpt>
      <trkpt lat="44.44382" lon="4.98124">
        <ele>265.63</ele>
        <time>2014-09-13T09:31:54Z</time>
      </trkpt>
      <trkpt lat="44.44381" lon="4.98123">
        <ele>265.59</ele>
        <time>2014-09-13T09:31:55Z</time>
      </trkpt>
      <trkpt lat="44.44379" lon="4.98124">
        <ele>265.65</ele>
        <time>2014-09-13T09:31:56Z</time>
      </trkpt>
      <trkpt lat="44.44377" lon="4.98124">
        <ele>265.57</ele>
        <time>2014-09-13T09:31:57Z</time>
      </trkpt>
      <trkpt lat="44.44374" lon="4.98124">
        <ele>265.54</ele>
        <time>2014-09-13T09:31:58Z</time>
      </trkpt>
      <trkpt lat="44.44372" lon="4.98123">
        <ele>265.49</ele>
        <time>2014-09-13T09:31:59Z</time>
      </trkpt>
      <trkpt lat="44.44367" lon="4.98123">
        <ele>265.23</ele>
        <time>2014-09-13T09:32:01Z</time>
      </trkpt>
      <trkpt lat="44.44364" lon="4.98122">
        <ele>265.08</ele>
        <time>2014-09-13T09:32:02Z</time>
      </trkpt>
      <trkpt lat="44.44362" lon="4.98121">
        <ele>264.98</ele>
        <time>2014-09-13T09:32:03Z</time>
      </trkpt>
      <trkpt lat="44.44361" lon="4.9812">
        <ele>264.85</ele>
        <time>2014-09-13T09:32:04Z</time>
      </trkpt>
      <trkpt lat="44.44359" lon="4.98113">
        <ele>264.65</ele>
        <time>2014-09-13T09:32:07Z</time>
      </trkpt>
      <trkpt lat="44.44356" lon="4.98111">
        <ele>264.62</ele>
        <time>2014-09-13T09:32:08Z</time>
      </trkpt>
      <trkpt lat="44.44354" lon="4.98109">
        <ele>264.62</ele>
        <time>2014-09-13T09:32:09Z</time>
      </trkpt>
      <trkpt lat="44.44342" lon="4.98098">
        <ele>264.53</ele>
        <time>2014-09-13T09:32:15Z</time>
      </trkpt>
      <trkpt lat="44.44341" lon="4.98096">
        <ele>264.54</ele>
        <time>2014-09-13T09:32:16Z</time>
      </trkpt>
      <trkpt lat="44.4434" lon="4.98094">
        <ele>264.61</ele>
        <time>2014-09-13T09:32:17Z</time>
      </trkpt>
      <trkpt lat="44.44338" lon="4.98092">
        <ele>264.81</ele>
        <time>2014-09-13T09:32:18Z</time>
      </trkpt>
      <trkpt lat="44.44338" lon="4.98089">
        <ele>264.87</ele>
        <time>2014-09-13T09:32:19Z</time>
      </trkpt>
      <trkpt lat="44.44336" lon="4.98087">
        <ele>265.04</ele>
        <time>2014-09-13T09:32:21Z</time>
      </trkpt>
      <trkpt lat="44.44336" lon="4.98085">
        <ele>265.09</ele>
        <time>2014-09-13T09:32:22Z</time>
      </trkpt>
      <trkpt lat="44.44335" lon="4.98081">
        <ele>265.09</ele>
        <time>2014-09-13T09:32:24Z</time>
      </trkpt>
      <trkpt lat="44.44334" lon="4.98079">
        <ele>265.08</ele>
        <time>2014-09-13T09:32:25Z</time>
      </trkpt>
      <trkpt lat="44.44332" lon="4.98053">
        <ele>264.39</ele>
        <time>2014-09-13T09:32:35Z</time>
      </trkpt>
      <trkpt lat="44.44337" lon="4.98036">
        <ele>263.86</ele>
        <time>2014-09-13T09:32:45Z</time>
      </trkpt>
      <trkpt lat="44.44338" lon="4.98031">
        <ele>263.67</ele>
        <time>2014-09-13T09:32:46Z</time>
      </trkpt>
      <trkpt lat="44.44339" lon="4.98023">
        <ele>263.15</ele>
        <time>2014-09-13T09:32:48Z</time>
      </trkpt>
      <trkpt lat="44.44339" lon="4.9802">
        <ele>262.76</ele>
        <time>2014-09-13T09:32:49Z</time>
      </trkpt>
      <trkpt lat="44.4434" lon="4.98018">
        <ele>262.31</ele>
        <time>2014-09-13T09:32:50Z</time>
      </trkpt>
      <trkpt lat="44.4434" lon="4.98013">
        <ele>261.72</ele>
        <time>2014-09-13T09:32:52Z</time>
      </trkpt>
      <trkpt lat="44.44339" lon="4.98003">
        <ele>259.76</ele>
        <time>2014-09-13T09:33:02Z</time>
      </trkpt>
      <trkpt lat="44.44336" lon="4.97999">
        <ele>260.65</ele>
        <time>2014-09-13T09:33:22Z</time>
      </trkpt>
      <trkpt lat="44.44334" lon="4.98002">
        <ele>260.79</ele>
        <time>2014-09-13T09:33:47Z</time>
      </trkpt>
      <trkpt lat="44.44331" lon="4.98003">
        <ele>261.66</ele>
        <time>2014-09-13T09:34:42Z</time>
      </trkpt>
      <trkpt lat="44.44331" lon="4.98002">
        <ele>262.35</ele>
        <time>2014-09-13T09:35:30Z</time>
      </trkpt>
      <trkpt lat="44.44334" lon="4.97996">
        <ele>262.24</ele>
        <time>2014-09-13T09:36:10Z</time>
      </trkpt>
      <trkpt lat="44.4433" lon="4.97996">
        <ele>261.68</ele>
        <time>2014-09-13T09:36:26Z</time>
      </trkpt>
      <trkpt lat="44.44309" lon="4.9799">
        <ele>260.6</ele>
        <time>2014-09-13T09:36:37Z</time>
      </trkpt>
      <trkpt lat="44.44303" lon="4.97989">
        <ele>260.47</ele>
        <time>2014-09-13T09:36:39Z</time>
      </trkpt>
      <trkpt lat="44.44299" lon="4.97989">
        <ele>260.23</ele>
        <time>2014-09-13T09:36:40Z</time>
      </trkpt>
      <trkpt lat="44.44295" lon="4.97988">
        <ele>260.04</ele>
        <time>2014-09-13T09:36:41Z</time>
      </trkpt>
      <trkpt lat="44.44291" lon="4.97989">
        <ele>259.92</ele>
        <time>2014-09-13T09:36:42Z</time>
      </trkpt>
      <trkpt lat="44.44288" lon="4.9799">
        <ele>259.85</ele>
        <time>2014-09-13T09:36:43Z</time>
      </trkpt>
      <trkpt lat="44.44285" lon="4.97991">
        <ele>259.74</ele>
        <time>2014-09-13T09:36:44Z</time>
      </trkpt>
      <trkpt lat="44.44283" lon="4.97993">
        <ele>259.57</ele>
        <time>2014-09-13T09:36:45Z</time>
      </trkpt>
      <trkpt lat="44.44279" lon="4.97999">
        <ele>258.95</ele>
        <time>2014-09-13T09:36:47Z</time>
      </trkpt>
      <trkpt lat="44.44268" lon="4.98019">
        <ele>257.34</ele>
        <time>2014-09-13T09:36:57Z</time>
      </trkpt>
      <trkpt lat="44.44264" lon="4.98018">
        <ele>257.45</ele>
        <time>2014-09-13T09:36:59Z</time>
      </trkpt>
      <trkpt lat="44.44261" lon="4.98017">
        <ele>257.35</ele>
        <time>2014-09-13T09:37:01Z</time>
      </trkpt>
      <trkpt lat="44.44259" lon="4.98018">
        <ele>257.33</ele>
        <time>2014-09-13T09:37:02Z</time>
      </trkpt>
      <trkpt lat="44.44246" lon="4.98017">
        <ele>256.04</ele>
        <time>2014-09-13T09:37:12Z</time>
      </trkpt>
      <trkpt lat="44.4424" lon="4.98015">
        <ele>255.99</ele>
        <time>2014-09-13T09:37:24Z</time>
      </trkpt>
      <trkpt lat="44.44239" lon="4.98015">
        <ele>255.95</ele>
        <time>2014-09-13T09:37:43Z</time>
      </trkpt>
      <trkpt lat="44.4424" lon="4.98011">
        <ele>256.56</ele>
        <time>2014-09-13T09:38:04Z</time>
      </trkpt>
      <trkpt lat="44.44238" lon="4.9801">
        <ele>256.87</ele>
        <time>2014-09-13T09:38:28Z</time>
      </trkpt>
    </trkseg>
  </trk>
</gpx>